<?xml version="1.0" encoding="UTF-8" standalone="no" ?>
<gpx xmlns="http://www.topografix.com/GPX/1/1" xmlns:xsi="http://www.w3.org/2001/XMLSchema-instance" xsi:schemaLocation="http://www.topografix.com/GPX/1/1 http://www.topografix.com/GPX/1/1/gpx.xsd" version="1.1" creator="VisuGPX - https://www.visugpx.com">
  <metadata>
    <name>saint Jean D'Aubrigoux 20km</name>
    <desc><![CDATA[fait le 18/05/2025 au départ d'un lieu privé]]></desc>
  </metadata>
  <wpt lat="45.39887" lon="3.81075">
    <ele>1057.1</ele>
    <name><![CDATA[pic pic]]></name>
    <type><![CDATA[picnic]]></type>
  </wpt>
  <trk>
    <name><![CDATA[SityTrail - 2025-05-28]]></name>
    <extensions>
      <line xmlns="http://www.topografix.com/GPX/gpx_style/0/2">
        <color>ff0040</color>
        <width>4</width>
        <dasharray>20</dasharray>
      </line>
    </extensions>
    <trkseg>
      <trkpt lat="45.39857" lon="3.81071">
        <ele>1070</ele>
        <time>2025-05-18T10:54:20.667Z</time>
      </trkpt>
      <trkpt lat="45.39832" lon="3.80983">
        <ele>1071</ele>
        <time>2025-05-18T12:48:42.515Z</time>
      </trkpt>
      <trkpt lat="45.39828" lon="3.80981">
        <ele>1071</ele>
        <time>2025-05-18T12:48:47.497Z</time>
      </trkpt>
      <trkpt lat="45.39822" lon="3.80978">
        <ele>1071</ele>
        <time>2025-05-18T12:48:51.508Z</time>
      </trkpt>
      <trkpt lat="45.39817" lon="3.80977">
        <ele>1071</ele>
        <time>2025-05-18T12:48:55.522Z</time>
      </trkpt>
      <trkpt lat="45.39815" lon="3.80969">
        <ele>1071</ele>
        <time>2025-05-18T12:48:59.856Z</time>
      </trkpt>
      <trkpt lat="45.39813" lon="3.80963">
        <ele>1071</ele>
        <time>2025-05-18T12:49:04.076Z</time>
      </trkpt>
      <trkpt lat="45.39809" lon="3.80958">
        <ele>1076</ele>
        <time>2025-05-18T12:49:08.337Z</time>
      </trkpt>
      <trkpt lat="45.39808" lon="3.80954">
        <ele>1076</ele>
        <time>2025-05-18T12:49:12.560Z</time>
      </trkpt>
      <trkpt lat="45.39804" lon="3.80948">
        <ele>1076</ele>
        <time>2025-05-18T12:49:16.837Z</time>
      </trkpt>
      <trkpt lat="45.398" lon="3.80945">
        <ele>1076</ele>
        <time>2025-05-18T12:49:21.482Z</time>
      </trkpt>
      <trkpt lat="45.39797" lon="3.80941">
        <ele>1076</ele>
        <time>2025-05-18T12:49:25.819Z</time>
      </trkpt>
      <trkpt lat="45.39793" lon="3.80938">
        <ele>1076</ele>
        <time>2025-05-18T12:49:30.509Z</time>
      </trkpt>
      <trkpt lat="45.39788" lon="3.80935">
        <ele>1079</ele>
        <time>2025-05-18T12:49:35.116Z</time>
      </trkpt>
      <trkpt lat="45.39785" lon="3.80932">
        <ele>1079</ele>
        <time>2025-05-18T12:49:39.216Z</time>
      </trkpt>
      <trkpt lat="45.39783" lon="3.80928">
        <ele>1083</ele>
        <time>2025-05-18T12:49:43.528Z</time>
      </trkpt>
      <trkpt lat="45.3978" lon="3.80923">
        <ele>1083</ele>
        <time>2025-05-18T12:49:48.445Z</time>
      </trkpt>
      <trkpt lat="45.39778" lon="3.8092">
        <ele>1083</ele>
        <time>2025-05-18T12:49:52.527Z</time>
      </trkpt>
      <trkpt lat="45.39776" lon="3.80914">
        <ele>1083</ele>
        <time>2025-05-18T12:49:57.519Z</time>
      </trkpt>
      <trkpt lat="45.39773" lon="3.80908">
        <ele>1083</ele>
        <time>2025-05-18T12:50:02.505Z</time>
      </trkpt>
      <trkpt lat="45.3977" lon="3.80905">
        <ele>1083</ele>
        <time>2025-05-18T12:50:06.545Z</time>
      </trkpt>
      <trkpt lat="45.39767" lon="3.80901">
        <ele>1083</ele>
        <time>2025-05-18T12:50:11.533Z</time>
      </trkpt>
      <trkpt lat="45.39765" lon="3.80895">
        <ele>1083</ele>
        <time>2025-05-18T12:50:16.589Z</time>
      </trkpt>
      <trkpt lat="45.39762" lon="3.80889">
        <ele>1088</ele>
        <time>2025-05-18T12:50:21.517Z</time>
      </trkpt>
      <trkpt lat="45.39757" lon="3.80885">
        <ele>1088</ele>
        <time>2025-05-18T12:50:26.522Z</time>
      </trkpt>
      <trkpt lat="45.39751" lon="3.80879">
        <ele>1088</ele>
        <time>2025-05-18T12:50:31.537Z</time>
      </trkpt>
      <trkpt lat="45.39744" lon="3.80876">
        <ele>1088</ele>
        <time>2025-05-18T12:50:35.538Z</time>
      </trkpt>
      <trkpt lat="45.39737" lon="3.8087">
        <ele>1090</ele>
        <time>2025-05-18T12:50:40.549Z</time>
      </trkpt>
      <trkpt lat="45.39729" lon="3.80866">
        <ele>1094</ele>
        <time>2025-05-18T12:50:45.541Z</time>
      </trkpt>
      <trkpt lat="45.39725" lon="3.80863">
        <ele>1094</ele>
        <time>2025-05-18T12:50:49.524Z</time>
      </trkpt>
      <trkpt lat="45.39722" lon="3.80862">
        <ele>1094</ele>
        <time>2025-05-18T12:50:54.531Z</time>
      </trkpt>
      <trkpt lat="45.39716" lon="3.80861">
        <ele>1094</ele>
        <time>2025-05-18T12:50:59.564Z</time>
      </trkpt>
      <trkpt lat="45.39707" lon="3.80862">
        <ele>1099</ele>
        <time>2025-05-18T12:51:04.536Z</time>
      </trkpt>
      <trkpt lat="45.39702" lon="3.80863">
        <ele>1099</ele>
        <time>2025-05-18T12:51:09.547Z</time>
      </trkpt>
      <trkpt lat="45.39694" lon="3.80866">
        <ele>1099</ele>
        <time>2025-05-18T12:51:14.516Z</time>
      </trkpt>
      <trkpt lat="45.39688" lon="3.80866">
        <ele>1099</ele>
        <time>2025-05-18T12:51:18.535Z</time>
      </trkpt>
      <trkpt lat="45.39679" lon="3.80869">
        <ele>1104</ele>
        <time>2025-05-18T12:51:23.533Z</time>
      </trkpt>
      <trkpt lat="45.39673" lon="3.80869">
        <ele>1104</ele>
        <time>2025-05-18T12:51:28.545Z</time>
      </trkpt>
      <trkpt lat="45.39666" lon="3.80869">
        <ele>1104</ele>
        <time>2025-05-18T12:51:33.546Z</time>
      </trkpt>
      <trkpt lat="45.39661" lon="3.8087">
        <ele>1104</ele>
        <time>2025-05-18T12:51:38.548Z</time>
      </trkpt>
      <trkpt lat="45.39656" lon="3.80871">
        <ele>1104</ele>
        <time>2025-05-18T12:51:43.537Z</time>
      </trkpt>
      <trkpt lat="45.39651" lon="3.80874">
        <ele>1111</ele>
        <time>2025-05-18T12:51:48.533Z</time>
      </trkpt>
      <trkpt lat="45.39644" lon="3.80876">
        <ele>1106</ele>
        <time>2025-05-18T12:51:52.539Z</time>
      </trkpt>
      <trkpt lat="45.39638" lon="3.80879">
        <ele>1106</ele>
        <time>2025-05-18T12:51:57.559Z</time>
      </trkpt>
      <trkpt lat="45.39631" lon="3.80882">
        <ele>1106</ele>
        <time>2025-05-18T12:52:02.514Z</time>
      </trkpt>
      <trkpt lat="45.39627" lon="3.80887">
        <ele>1106</ele>
        <time>2025-05-18T12:52:06.532Z</time>
      </trkpt>
      <trkpt lat="45.3962" lon="3.8089">
        <ele>1113</ele>
        <time>2025-05-18T12:52:11.530Z</time>
      </trkpt>
      <trkpt lat="45.39613" lon="3.80894">
        <ele>1113</ele>
        <time>2025-05-18T12:52:16.522Z</time>
      </trkpt>
      <trkpt lat="45.39606" lon="3.80897">
        <ele>1113</ele>
        <time>2025-05-18T12:52:21.532Z</time>
      </trkpt>
      <trkpt lat="45.396" lon="3.80899">
        <ele>1113</ele>
        <time>2025-05-18T12:52:25.551Z</time>
      </trkpt>
      <trkpt lat="45.39592" lon="3.80907">
        <ele>1113</ele>
        <time>2025-05-18T12:52:30.531Z</time>
      </trkpt>
      <trkpt lat="45.39586" lon="3.80912">
        <ele>1113</ele>
        <time>2025-05-18T12:52:35.529Z</time>
      </trkpt>
      <trkpt lat="45.3958" lon="3.80916">
        <ele>1113</ele>
        <time>2025-05-18T12:52:40.518Z</time>
      </trkpt>
      <trkpt lat="45.39576" lon="3.80919">
        <ele>1113</ele>
        <time>2025-05-18T12:52:44.523Z</time>
      </trkpt>
      <trkpt lat="45.39568" lon="3.80921">
        <ele>1117</ele>
        <time>2025-05-18T12:52:49.537Z</time>
      </trkpt>
      <trkpt lat="45.39562" lon="3.80925">
        <ele>1117</ele>
        <time>2025-05-18T12:52:53.546Z</time>
      </trkpt>
      <trkpt lat="45.39555" lon="3.80931">
        <ele>1111</ele>
        <time>2025-05-18T12:52:58.531Z</time>
      </trkpt>
      <trkpt lat="45.3955" lon="3.80933">
        <ele>1111</ele>
        <time>2025-05-18T12:53:03.347Z</time>
      </trkpt>
      <trkpt lat="45.39544" lon="3.80937">
        <ele>1111</ele>
        <time>2025-05-18T12:53:07.876Z</time>
      </trkpt>
      <trkpt lat="45.3954" lon="3.80941">
        <ele>1114</ele>
        <time>2025-05-18T12:53:12.103Z</time>
      </trkpt>
      <trkpt lat="45.39534" lon="3.80945">
        <ele>1114</ele>
        <time>2025-05-18T12:53:16.547Z</time>
      </trkpt>
      <trkpt lat="45.39528" lon="3.80948">
        <ele>1114</ele>
        <time>2025-05-18T12:53:21.257Z</time>
      </trkpt>
      <trkpt lat="45.39522" lon="3.80949">
        <ele>1114</ele>
        <time>2025-05-18T12:53:25.549Z</time>
      </trkpt>
      <trkpt lat="45.39517" lon="3.80948">
        <ele>1114</ele>
        <time>2025-05-18T12:53:29.957Z</time>
      </trkpt>
      <trkpt lat="45.39512" lon="3.80946">
        <ele>1115</ele>
        <time>2025-05-18T12:53:33.998Z</time>
      </trkpt>
      <trkpt lat="45.39508" lon="3.80943">
        <ele>1115</ele>
        <time>2025-05-18T12:53:38.158Z</time>
      </trkpt>
      <trkpt lat="45.39504" lon="3.8094">
        <ele>1115</ele>
        <time>2025-05-18T12:53:42.482Z</time>
      </trkpt>
      <trkpt lat="45.395" lon="3.80938">
        <ele>1115</ele>
        <time>2025-05-18T12:53:46.516Z</time>
      </trkpt>
      <trkpt lat="45.39496" lon="3.80935">
        <ele>1115</ele>
        <time>2025-05-18T12:53:50.537Z</time>
      </trkpt>
      <trkpt lat="45.3949" lon="3.80932">
        <ele>1115</ele>
        <time>2025-05-18T12:53:54.959Z</time>
      </trkpt>
      <trkpt lat="45.39484" lon="3.80928">
        <ele>1123</ele>
        <time>2025-05-18T12:53:59.339Z</time>
      </trkpt>
      <trkpt lat="45.39479" lon="3.80923">
        <ele>1123</ele>
        <time>2025-05-18T12:54:03.550Z</time>
      </trkpt>
      <trkpt lat="45.39472" lon="3.80918">
        <ele>1123</ele>
        <time>2025-05-18T12:54:08.141Z</time>
      </trkpt>
      <trkpt lat="45.39462" lon="3.80919">
        <ele>1123</ele>
        <time>2025-05-18T12:54:12.857Z</time>
      </trkpt>
      <trkpt lat="45.39454" lon="3.80921">
        <ele>1122</ele>
        <time>2025-05-18T12:54:17.140Z</time>
      </trkpt>
      <trkpt lat="45.39446" lon="3.80922">
        <ele>1122</ele>
        <time>2025-05-18T12:54:21.528Z</time>
      </trkpt>
      <trkpt lat="45.39441" lon="3.80926">
        <ele>1122</ele>
        <time>2025-05-18T12:54:25.799Z</time>
      </trkpt>
      <trkpt lat="45.39435" lon="3.80933">
        <ele>1119</ele>
        <time>2025-05-18T12:54:30.444Z</time>
      </trkpt>
      <trkpt lat="45.39429" lon="3.80933">
        <ele>1122</ele>
        <time>2025-05-18T12:54:34.641Z</time>
      </trkpt>
      <trkpt lat="45.39424" lon="3.80936">
        <ele>1122</ele>
        <time>2025-05-18T12:54:38.740Z</time>
      </trkpt>
      <trkpt lat="45.39419" lon="3.80938">
        <ele>1122</ele>
        <time>2025-05-18T12:54:42.965Z</time>
      </trkpt>
      <trkpt lat="45.39409" lon="3.80939">
        <ele>1122</ele>
        <time>2025-05-18T12:55:26.528Z</time>
      </trkpt>
      <trkpt lat="45.39409" lon="3.80939">
        <ele>1122</ele>
        <time>2025-05-18T12:55:30.555Z</time>
      </trkpt>
      <trkpt lat="45.39409" lon="3.80939">
        <ele>1122</ele>
        <time>2025-05-18T12:55:35.541Z</time>
      </trkpt>
      <trkpt lat="45.39407" lon="3.80937">
        <ele>1122</ele>
        <time>2025-05-18T12:55:57.618Z</time>
      </trkpt>
      <trkpt lat="45.39404" lon="3.80935">
        <ele>1122</ele>
        <time>2025-05-18T12:56:02.539Z</time>
      </trkpt>
      <trkpt lat="45.39402" lon="3.80935">
        <ele>1124</ele>
        <time>2025-05-18T12:56:06.514Z</time>
      </trkpt>
      <trkpt lat="45.39401" lon="3.80936">
        <ele>1124</ele>
        <time>2025-05-18T12:56:11.550Z</time>
      </trkpt>
      <trkpt lat="45.39398" lon="3.80936">
        <ele>1124</ele>
        <time>2025-05-18T12:56:16.537Z</time>
      </trkpt>
      <trkpt lat="45.39396" lon="3.80936">
        <ele>1124</ele>
        <time>2025-05-18T12:56:21.517Z</time>
      </trkpt>
      <trkpt lat="45.39389" lon="3.80934">
        <ele>1124</ele>
        <time>2025-05-18T12:56:25.525Z</time>
      </trkpt>
      <trkpt lat="45.39392" lon="3.80937">
        <ele>1124</ele>
        <time>2025-05-18T12:56:30.006Z</time>
      </trkpt>
      <trkpt lat="45.39384" lon="3.80937">
        <ele>1124</ele>
        <time>2025-05-18T12:56:34.125Z</time>
      </trkpt>
      <trkpt lat="45.39379" lon="3.80933">
        <ele>1124</ele>
        <time>2025-05-18T12:56:39.245Z</time>
      </trkpt>
      <trkpt lat="45.39376" lon="3.80935">
        <ele>1124</ele>
        <time>2025-05-18T12:56:43.528Z</time>
      </trkpt>
      <trkpt lat="45.39372" lon="3.80937">
        <ele>1122</ele>
        <time>2025-05-18T12:56:48.385Z</time>
      </trkpt>
      <trkpt lat="45.39369" lon="3.80941">
        <ele>1122</ele>
        <time>2025-05-18T12:56:52.485Z</time>
      </trkpt>
      <trkpt lat="45.39367" lon="3.80947">
        <ele>1122</ele>
        <time>2025-05-18T12:56:56.867Z</time>
      </trkpt>
      <trkpt lat="45.39362" lon="3.8095">
        <ele>1122</ele>
        <time>2025-05-18T12:57:01.165Z</time>
      </trkpt>
      <trkpt lat="45.39349" lon="3.80949">
        <ele>1122</ele>
        <time>2025-05-18T12:57:19.829Z</time>
      </trkpt>
      <trkpt lat="45.39347" lon="3.80949">
        <ele>1125</ele>
        <time>2025-05-18T12:57:24.546Z</time>
      </trkpt>
      <trkpt lat="45.39346" lon="3.8095">
        <ele>1125</ele>
        <time>2025-05-18T12:57:29.369Z</time>
      </trkpt>
      <trkpt lat="45.39343" lon="3.8095">
        <ele>1125</ele>
        <time>2025-05-18T12:57:33.563Z</time>
      </trkpt>
      <trkpt lat="45.3934" lon="3.80952">
        <ele>1125</ele>
        <time>2025-05-18T12:57:38.533Z</time>
      </trkpt>
      <trkpt lat="45.3934" lon="3.80952">
        <ele>1125</ele>
        <time>2025-05-18T12:57:47.529Z</time>
      </trkpt>
      <trkpt lat="45.39341" lon="3.80949">
        <ele>1125</ele>
        <time>2025-05-18T12:57:52.524Z</time>
      </trkpt>
      <trkpt lat="45.39339" lon="3.80947">
        <ele>1125</ele>
        <time>2025-05-18T12:57:57.538Z</time>
      </trkpt>
      <trkpt lat="45.39335" lon="3.80949">
        <ele>1125</ele>
        <time>2025-05-18T12:58:02.532Z</time>
      </trkpt>
      <trkpt lat="45.3933" lon="3.80951">
        <ele>1125</ele>
        <time>2025-05-18T12:58:07.535Z</time>
      </trkpt>
      <trkpt lat="45.39323" lon="3.80956">
        <ele>1125</ele>
        <time>2025-05-18T12:58:12.540Z</time>
      </trkpt>
      <trkpt lat="45.39317" lon="3.80963">
        <ele>1126</ele>
        <time>2025-05-18T12:58:17.542Z</time>
      </trkpt>
      <trkpt lat="45.39311" lon="3.80966">
        <ele>1126</ele>
        <time>2025-05-18T12:58:22.711Z</time>
      </trkpt>
      <trkpt lat="45.39304" lon="3.80977">
        <ele>1126</ele>
        <time>2025-05-18T12:58:27.544Z</time>
      </trkpt>
      <trkpt lat="45.393" lon="3.80982">
        <ele>1126</ele>
        <time>2025-05-18T12:58:32.511Z</time>
      </trkpt>
      <trkpt lat="45.39296" lon="3.80983">
        <ele>1126</ele>
        <time>2025-05-18T12:58:36.527Z</time>
      </trkpt>
      <trkpt lat="45.39289" lon="3.80983">
        <ele>1130</ele>
        <time>2025-05-18T12:58:41.530Z</time>
      </trkpt>
      <trkpt lat="45.39283" lon="3.80985">
        <ele>1130</ele>
        <time>2025-05-18T12:58:46.535Z</time>
      </trkpt>
      <trkpt lat="45.39276" lon="3.80989">
        <ele>1126</ele>
        <time>2025-05-18T12:58:51.521Z</time>
      </trkpt>
      <trkpt lat="45.3927" lon="3.80992">
        <ele>1126</ele>
        <time>2025-05-18T12:58:56.605Z</time>
      </trkpt>
      <trkpt lat="45.39264" lon="3.80996">
        <ele>1126</ele>
        <time>2025-05-18T12:59:01.522Z</time>
      </trkpt>
      <trkpt lat="45.39258" lon="3.81001">
        <ele>1132</ele>
        <time>2025-05-18T12:59:06.541Z</time>
      </trkpt>
      <trkpt lat="45.39254" lon="3.81006">
        <ele>1132</ele>
        <time>2025-05-18T12:59:10.534Z</time>
      </trkpt>
      <trkpt lat="45.39248" lon="3.81011">
        <ele>1132</ele>
        <time>2025-05-18T12:59:15.524Z</time>
      </trkpt>
      <trkpt lat="45.39245" lon="3.81014">
        <ele>1132</ele>
        <time>2025-05-18T12:59:19.534Z</time>
      </trkpt>
      <trkpt lat="45.39239" lon="3.81016">
        <ele>1128</ele>
        <time>2025-05-18T12:59:24.530Z</time>
      </trkpt>
      <trkpt lat="45.39233" lon="3.81018">
        <ele>1138</ele>
        <time>2025-05-18T12:59:29.538Z</time>
      </trkpt>
      <trkpt lat="45.39227" lon="3.81023">
        <ele>1138</ele>
        <time>2025-05-18T12:59:34.535Z</time>
      </trkpt>
      <trkpt lat="45.39221" lon="3.81029">
        <ele>1138</ele>
        <time>2025-05-18T12:59:39.537Z</time>
      </trkpt>
      <trkpt lat="45.39215" lon="3.81031">
        <ele>1138</ele>
        <time>2025-05-18T12:59:44.540Z</time>
      </trkpt>
      <trkpt lat="45.39208" lon="3.81033">
        <ele>1138</ele>
        <time>2025-05-18T12:59:48.543Z</time>
      </trkpt>
      <trkpt lat="45.392" lon="3.81033">
        <ele>1146</ele>
        <time>2025-05-18T12:59:53.544Z</time>
      </trkpt>
      <trkpt lat="45.39194" lon="3.81037">
        <ele>1146</ele>
        <time>2025-05-18T12:59:58.542Z</time>
      </trkpt>
      <trkpt lat="45.39191" lon="3.81038">
        <ele>1146</ele>
        <time>2025-05-18T13:00:03.652Z</time>
      </trkpt>
      <trkpt lat="45.39191" lon="3.8104">
        <ele>1146</ele>
        <time>2025-05-18T13:00:08.560Z</time>
      </trkpt>
      <trkpt lat="45.39186" lon="3.81046">
        <ele>1141</ele>
        <time>2025-05-18T13:00:13.555Z</time>
      </trkpt>
      <trkpt lat="45.39182" lon="3.81048">
        <ele>1141</ele>
        <time>2025-05-18T13:00:17.700Z</time>
      </trkpt>
      <trkpt lat="45.39181" lon="3.81047">
        <ele>1141</ele>
        <time>2025-05-18T13:00:22.556Z</time>
      </trkpt>
      <trkpt lat="45.39177" lon="3.8105">
        <ele>1145</ele>
        <time>2025-05-18T13:00:34.554Z</time>
      </trkpt>
      <trkpt lat="45.39177" lon="3.81051">
        <ele>1145</ele>
        <time>2025-05-18T13:00:48.545Z</time>
      </trkpt>
      <trkpt lat="45.39175" lon="3.81055">
        <ele>1145</ele>
        <time>2025-05-18T13:00:53.592Z</time>
      </trkpt>
      <trkpt lat="45.39175" lon="3.81061">
        <ele>1145</ele>
        <time>2025-05-18T13:00:58.559Z</time>
      </trkpt>
      <trkpt lat="45.39179" lon="3.81063">
        <ele>1145</ele>
        <time>2025-05-18T13:01:03.562Z</time>
      </trkpt>
      <trkpt lat="45.39184" lon="3.81065">
        <ele>1141</ele>
        <time>2025-05-18T13:01:18.542Z</time>
      </trkpt>
      <trkpt lat="45.39187" lon="3.81068">
        <ele>1141</ele>
        <time>2025-05-18T13:01:23.547Z</time>
      </trkpt>
      <trkpt lat="45.39188" lon="3.81067">
        <ele>1141</ele>
        <time>2025-05-18T13:01:28.550Z</time>
      </trkpt>
      <trkpt lat="45.39191" lon="3.81071">
        <ele>1135</ele>
        <time>2025-05-18T13:01:33.537Z</time>
      </trkpt>
      <trkpt lat="45.39193" lon="3.81073">
        <ele>1135</ele>
        <time>2025-05-18T13:01:38.555Z</time>
      </trkpt>
      <trkpt lat="45.39195" lon="3.81074">
        <ele>1135</ele>
        <time>2025-05-18T13:01:43.539Z</time>
      </trkpt>
      <trkpt lat="45.39198" lon="3.81075">
        <ele>1135</ele>
        <time>2025-05-18T13:01:48.525Z</time>
      </trkpt>
      <trkpt lat="45.39201" lon="3.81076">
        <ele>1135</ele>
        <time>2025-05-18T13:01:53.518Z</time>
      </trkpt>
      <trkpt lat="45.39204" lon="3.81076">
        <ele>1135</ele>
        <time>2025-05-18T13:01:57.551Z</time>
      </trkpt>
      <trkpt lat="45.39208" lon="3.8107">
        <ele>1135</ele>
        <time>2025-05-18T13:02:02.536Z</time>
      </trkpt>
      <trkpt lat="45.3921" lon="3.81066">
        <ele>1134</ele>
        <time>2025-05-18T13:02:06.544Z</time>
      </trkpt>
      <trkpt lat="45.39214" lon="3.81065">
        <ele>1134</ele>
        <time>2025-05-18T13:02:10.554Z</time>
      </trkpt>
      <trkpt lat="45.39219" lon="3.81066">
        <ele>1134</ele>
        <time>2025-05-18T13:02:15.512Z</time>
      </trkpt>
      <trkpt lat="45.39224" lon="3.81067">
        <ele>1134</ele>
        <time>2025-05-18T13:02:19.526Z</time>
      </trkpt>
      <trkpt lat="45.39229" lon="3.81067">
        <ele>1134</ele>
        <time>2025-05-18T13:02:23.545Z</time>
      </trkpt>
      <trkpt lat="45.39233" lon="3.81065">
        <ele>1134</ele>
        <time>2025-05-18T13:02:28.512Z</time>
      </trkpt>
      <trkpt lat="45.39235" lon="3.81065">
        <ele>1134</ele>
        <time>2025-05-18T13:02:33.547Z</time>
      </trkpt>
      <trkpt lat="45.39239" lon="3.81068">
        <ele>1124</ele>
        <time>2025-05-18T13:02:38.678Z</time>
      </trkpt>
      <trkpt lat="45.39241" lon="3.81064">
        <ele>1124</ele>
        <time>2025-05-18T13:02:43.556Z</time>
      </trkpt>
      <trkpt lat="45.39244" lon="3.81055">
        <ele>1124</ele>
        <time>2025-05-18T13:02:48.534Z</time>
      </trkpt>
      <trkpt lat="45.39249" lon="3.81053">
        <ele>1124</ele>
        <time>2025-05-18T13:02:53.622Z</time>
      </trkpt>
      <trkpt lat="45.39256" lon="3.81056">
        <ele>1124</ele>
        <time>2025-05-18T13:02:58.539Z</time>
      </trkpt>
      <trkpt lat="45.39259" lon="3.81054">
        <ele>1124</ele>
        <time>2025-05-18T13:03:02.544Z</time>
      </trkpt>
      <trkpt lat="45.39262" lon="3.81052">
        <ele>1124</ele>
        <time>2025-05-18T13:03:06.559Z</time>
      </trkpt>
      <trkpt lat="45.39262" lon="3.81052">
        <ele>1124</ele>
        <time>2025-05-18T13:03:12.542Z</time>
      </trkpt>
      <trkpt lat="45.39267" lon="3.81055">
        <ele>1120</ele>
        <time>2025-05-18T13:03:16.552Z</time>
      </trkpt>
      <trkpt lat="45.39275" lon="3.81054">
        <ele>1120</ele>
        <time>2025-05-18T13:03:21.552Z</time>
      </trkpt>
      <trkpt lat="45.3928" lon="3.81053">
        <ele>1120</ele>
        <time>2025-05-18T13:03:26.561Z</time>
      </trkpt>
      <trkpt lat="45.39284" lon="3.81054">
        <ele>1120</ele>
        <time>2025-05-18T13:03:31.599Z</time>
      </trkpt>
      <trkpt lat="45.39287" lon="3.81057">
        <ele>1120</ele>
        <time>2025-05-18T13:03:36.548Z</time>
      </trkpt>
      <trkpt lat="45.39286" lon="3.81057">
        <ele>1120</ele>
        <time>2025-05-18T13:03:41.529Z</time>
      </trkpt>
      <trkpt lat="45.39283" lon="3.8106">
        <ele>1120</ele>
        <time>2025-05-18T13:03:46.530Z</time>
      </trkpt>
      <trkpt lat="45.39279" lon="3.81066">
        <ele>1120</ele>
        <time>2025-05-18T13:03:51.562Z</time>
      </trkpt>
      <trkpt lat="45.39277" lon="3.81071">
        <ele>1118</ele>
        <time>2025-05-18T13:03:56.533Z</time>
      </trkpt>
      <trkpt lat="45.39273" lon="3.81078">
        <ele>1118</ele>
        <time>2025-05-18T13:04:01.468Z</time>
      </trkpt>
      <trkpt lat="45.3927" lon="3.81081">
        <ele>1118</ele>
        <time>2025-05-18T13:04:06.289Z</time>
      </trkpt>
      <trkpt lat="45.39266" lon="3.81085">
        <ele>1118</ele>
        <time>2025-05-18T13:04:10.521Z</time>
      </trkpt>
      <trkpt lat="45.39263" lon="3.81092">
        <ele>1122</ele>
        <time>2025-05-18T13:04:15.223Z</time>
      </trkpt>
      <trkpt lat="45.39262" lon="3.81102">
        <ele>1119</ele>
        <time>2025-05-18T13:04:19.343Z</time>
      </trkpt>
      <trkpt lat="45.39261" lon="3.81112">
        <ele>1119</ele>
        <time>2025-05-18T13:04:23.535Z</time>
      </trkpt>
      <trkpt lat="45.3926" lon="3.81122">
        <ele>1119</ele>
        <time>2025-05-18T13:04:27.969Z</time>
      </trkpt>
      <trkpt lat="45.39256" lon="3.81132">
        <ele>1115</ele>
        <time>2025-05-18T13:04:32.557Z</time>
      </trkpt>
      <trkpt lat="45.39249" lon="3.81137">
        <ele>1115</ele>
        <time>2025-05-18T13:04:37.549Z</time>
      </trkpt>
      <trkpt lat="45.39243" lon="3.81139">
        <ele>1115</ele>
        <time>2025-05-18T13:04:41.984Z</time>
      </trkpt>
      <trkpt lat="45.39238" lon="3.81144">
        <ele>1115</ele>
        <time>2025-05-18T13:04:46.393Z</time>
      </trkpt>
      <trkpt lat="45.39234" lon="3.81147">
        <ele>1118</ele>
        <time>2025-05-18T13:04:51.303Z</time>
      </trkpt>
      <trkpt lat="45.39229" lon="3.81149">
        <ele>1118</ele>
        <time>2025-05-18T13:04:55.610Z</time>
      </trkpt>
      <trkpt lat="45.39224" lon="3.81154">
        <ele>1110</ele>
        <time>2025-05-18T13:04:59.803Z</time>
      </trkpt>
      <trkpt lat="45.3922" lon="3.81161">
        <ele>1110</ele>
        <time>2025-05-18T13:05:04.143Z</time>
      </trkpt>
      <trkpt lat="45.39213" lon="3.81168">
        <ele>1110</ele>
        <time>2025-05-18T13:05:08.534Z</time>
      </trkpt>
      <trkpt lat="45.39205" lon="3.81172">
        <ele>1116</ele>
        <time>2025-05-18T13:05:13.349Z</time>
      </trkpt>
      <trkpt lat="45.392" lon="3.81175">
        <ele>1116</ele>
        <time>2025-05-18T13:05:17.729Z</time>
      </trkpt>
      <trkpt lat="45.39195" lon="3.81178">
        <ele>1116</ele>
        <time>2025-05-18T13:05:21.963Z</time>
      </trkpt>
      <trkpt lat="45.3919" lon="3.81181">
        <ele>1107</ele>
        <time>2025-05-18T13:05:26.066Z</time>
      </trkpt>
      <trkpt lat="45.39185" lon="3.81182">
        <ele>1107</ele>
        <time>2025-05-18T13:05:30.542Z</time>
      </trkpt>
      <trkpt lat="45.39179" lon="3.81187">
        <ele>1114</ele>
        <time>2025-05-18T13:05:35.148Z</time>
      </trkpt>
      <trkpt lat="45.39172" lon="3.8119">
        <ele>1114</ele>
        <time>2025-05-18T13:05:39.538Z</time>
      </trkpt>
      <trkpt lat="45.39165" lon="3.81192">
        <ele>1114</ele>
        <time>2025-05-18T13:05:43.570Z</time>
      </trkpt>
      <trkpt lat="45.39157" lon="3.81194">
        <ele>1114</ele>
        <time>2025-05-18T13:05:48.466Z</time>
      </trkpt>
      <trkpt lat="45.3915" lon="3.81195">
        <ele>1115</ele>
        <time>2025-05-18T13:05:53.446Z</time>
      </trkpt>
      <trkpt lat="45.39145" lon="3.81196">
        <ele>1115</ele>
        <time>2025-05-18T13:05:57.452Z</time>
      </trkpt>
      <trkpt lat="45.39139" lon="3.81198">
        <ele>1115</ele>
        <time>2025-05-18T13:06:01.742Z</time>
      </trkpt>
      <trkpt lat="45.39133" lon="3.81199">
        <ele>1115</ele>
        <time>2025-05-18T13:06:06.026Z</time>
      </trkpt>
      <trkpt lat="45.39129" lon="3.81198">
        <ele>1115</ele>
        <time>2025-05-18T13:06:10.310Z</time>
      </trkpt>
      <trkpt lat="45.39126" lon="3.81197">
        <ele>1115</ele>
        <time>2025-05-18T13:06:14.546Z</time>
      </trkpt>
      <trkpt lat="45.3912" lon="3.81198">
        <ele>1114</ele>
        <time>2025-05-18T13:06:18.983Z</time>
      </trkpt>
      <trkpt lat="45.39114" lon="3.81197">
        <ele>1114</ele>
        <time>2025-05-18T13:06:23.527Z</time>
      </trkpt>
      <trkpt lat="45.39108" lon="3.81195">
        <ele>1114</ele>
        <time>2025-05-18T13:06:28.229Z</time>
      </trkpt>
      <trkpt lat="45.39101" lon="3.81192">
        <ele>1114</ele>
        <time>2025-05-18T13:06:33.029Z</time>
      </trkpt>
      <trkpt lat="45.39093" lon="3.81192">
        <ele>1116</ele>
        <time>2025-05-18T13:06:37.401Z</time>
      </trkpt>
      <trkpt lat="45.39086" lon="3.81194">
        <ele>1116</ele>
        <time>2025-05-18T13:06:41.518Z</time>
      </trkpt>
      <trkpt lat="45.3908" lon="3.81193">
        <ele>1116</ele>
        <time>2025-05-18T13:06:46.183Z</time>
      </trkpt>
      <trkpt lat="45.39073" lon="3.81192">
        <ele>1116</ele>
        <time>2025-05-18T13:06:50.533Z</time>
      </trkpt>
      <trkpt lat="45.39067" lon="3.81192">
        <ele>1118</ele>
        <time>2025-05-18T13:06:54.913Z</time>
      </trkpt>
      <trkpt lat="45.3906" lon="3.81191">
        <ele>1118</ele>
        <time>2025-05-18T13:06:59.026Z</time>
      </trkpt>
      <trkpt lat="45.39051" lon="3.8119">
        <ele>1118</ele>
        <time>2025-05-18T13:07:03.407Z</time>
      </trkpt>
      <trkpt lat="45.39044" lon="3.8119">
        <ele>1118</ele>
        <time>2025-05-18T13:07:07.462Z</time>
      </trkpt>
      <trkpt lat="45.39038" lon="3.81192">
        <ele>1120</ele>
        <time>2025-05-18T13:07:12.166Z</time>
      </trkpt>
      <trkpt lat="45.39032" lon="3.81192">
        <ele>1120</ele>
        <time>2025-05-18T13:07:16.385Z</time>
      </trkpt>
      <trkpt lat="45.39027" lon="3.81192">
        <ele>1120</ele>
        <time>2025-05-18T13:07:20.464Z</time>
      </trkpt>
      <trkpt lat="45.39022" lon="3.81193">
        <ele>1120</ele>
        <time>2025-05-18T13:07:24.536Z</time>
      </trkpt>
      <trkpt lat="45.39015" lon="3.81192">
        <ele>1120</ele>
        <time>2025-05-18T13:07:29.007Z</time>
      </trkpt>
      <trkpt lat="45.39009" lon="3.8119">
        <ele>1121</ele>
        <time>2025-05-18T13:07:33.026Z</time>
      </trkpt>
      <trkpt lat="45.39003" lon="3.8119">
        <ele>1121</ele>
        <time>2025-05-18T13:07:37.229Z</time>
      </trkpt>
      <trkpt lat="45.38997" lon="3.81191">
        <ele>1121</ele>
        <time>2025-05-18T13:07:41.487Z</time>
      </trkpt>
      <trkpt lat="45.38991" lon="3.81193">
        <ele>1121</ele>
        <time>2025-05-18T13:07:45.544Z</time>
      </trkpt>
      <trkpt lat="45.38984" lon="3.81194">
        <ele>1122</ele>
        <time>2025-05-18T13:07:50.046Z</time>
      </trkpt>
      <trkpt lat="45.38979" lon="3.81193">
        <ele>1122</ele>
        <time>2025-05-18T13:07:54.190Z</time>
      </trkpt>
      <trkpt lat="45.38973" lon="3.81194">
        <ele>1122</ele>
        <time>2025-05-18T13:07:58.520Z</time>
      </trkpt>
      <trkpt lat="45.38968" lon="3.81192">
        <ele>1122</ele>
        <time>2025-05-18T13:08:03.009Z</time>
      </trkpt>
      <trkpt lat="45.38962" lon="3.8119">
        <ele>1122</ele>
        <time>2025-05-18T13:08:07.227Z</time>
      </trkpt>
      <trkpt lat="45.38955" lon="3.81188">
        <ele>1124</ele>
        <time>2025-05-18T13:08:11.345Z</time>
      </trkpt>
      <trkpt lat="45.3895" lon="3.81186">
        <ele>1124</ele>
        <time>2025-05-18T13:08:15.537Z</time>
      </trkpt>
      <trkpt lat="45.38942" lon="3.81182">
        <ele>1124</ele>
        <time>2025-05-18T13:08:20.503Z</time>
      </trkpt>
      <trkpt lat="45.38933" lon="3.81182">
        <ele>1124</ele>
        <time>2025-05-18T13:08:25.525Z</time>
      </trkpt>
      <trkpt lat="45.38926" lon="3.81183">
        <ele>1123</ele>
        <time>2025-05-18T13:08:29.529Z</time>
      </trkpt>
      <trkpt lat="45.3892" lon="3.81184">
        <ele>1123</ele>
        <time>2025-05-18T13:08:34.083Z</time>
      </trkpt>
      <trkpt lat="45.38914" lon="3.81187">
        <ele>1123</ele>
        <time>2025-05-18T13:08:38.286Z</time>
      </trkpt>
      <trkpt lat="45.38907" lon="3.8119">
        <ele>1123</ele>
        <time>2025-05-18T13:08:42.530Z</time>
      </trkpt>
      <trkpt lat="45.38898" lon="3.81195">
        <ele>1122</ele>
        <time>2025-05-18T13:08:47.564Z</time>
      </trkpt>
      <trkpt lat="45.38891" lon="3.81196">
        <ele>1122</ele>
        <time>2025-05-18T13:08:51.930Z</time>
      </trkpt>
      <trkpt lat="45.38884" lon="3.81197">
        <ele>1122</ele>
        <time>2025-05-18T13:08:56.069Z</time>
      </trkpt>
      <trkpt lat="45.38877" lon="3.81199">
        <ele>1122</ele>
        <time>2025-05-18T13:09:00.532Z</time>
      </trkpt>
      <trkpt lat="45.38871" lon="3.81202">
        <ele>1119</ele>
        <time>2025-05-18T13:09:05.223Z</time>
      </trkpt>
      <trkpt lat="45.38864" lon="3.81204">
        <ele>1119</ele>
        <time>2025-05-18T13:09:09.327Z</time>
      </trkpt>
      <trkpt lat="45.38856" lon="3.81203">
        <ele>1119</ele>
        <time>2025-05-18T13:09:13.349Z</time>
      </trkpt>
      <trkpt lat="45.38845" lon="3.81202">
        <ele>1122</ele>
        <time>2025-05-18T13:09:18.189Z</time>
      </trkpt>
      <trkpt lat="45.38838" lon="3.81201">
        <ele>1122</ele>
        <time>2025-05-18T13:09:22.529Z</time>
      </trkpt>
      <trkpt lat="45.38829" lon="3.812">
        <ele>1122</ele>
        <time>2025-05-18T13:09:26.926Z</time>
      </trkpt>
      <trkpt lat="45.38821" lon="3.812">
        <ele>1122</ele>
        <time>2025-05-18T13:09:31.062Z</time>
      </trkpt>
      <trkpt lat="45.38815" lon="3.81201">
        <ele>1126</ele>
        <time>2025-05-18T13:09:35.430Z</time>
      </trkpt>
      <trkpt lat="45.38812" lon="3.81203">
        <ele>1126</ele>
        <time>2025-05-18T13:09:39.926Z</time>
      </trkpt>
      <trkpt lat="45.38806" lon="3.81205">
        <ele>1126</ele>
        <time>2025-05-18T13:09:44.309Z</time>
      </trkpt>
      <trkpt lat="45.388" lon="3.81206">
        <ele>1126</ele>
        <time>2025-05-18T13:09:48.750Z</time>
      </trkpt>
      <trkpt lat="45.38797" lon="3.81207">
        <ele>1126</ele>
        <time>2025-05-18T13:09:52.942Z</time>
      </trkpt>
      <trkpt lat="45.38792" lon="3.81206">
        <ele>1126</ele>
        <time>2025-05-18T13:09:57.518Z</time>
      </trkpt>
      <trkpt lat="45.38787" lon="3.81205">
        <ele>1125</ele>
        <time>2025-05-18T13:10:02.306Z</time>
      </trkpt>
      <trkpt lat="45.38781" lon="3.81205">
        <ele>1125</ele>
        <time>2025-05-18T13:10:06.448Z</time>
      </trkpt>
      <trkpt lat="45.38775" lon="3.81206">
        <ele>1125</ele>
        <time>2025-05-18T13:10:10.806Z</time>
      </trkpt>
      <trkpt lat="45.38769" lon="3.81205">
        <ele>1125</ele>
        <time>2025-05-18T13:10:14.909Z</time>
      </trkpt>
      <trkpt lat="45.38762" lon="3.81206">
        <ele>1124</ele>
        <time>2025-05-18T13:10:19.087Z</time>
      </trkpt>
      <trkpt lat="45.38755" lon="3.81205">
        <ele>1124</ele>
        <time>2025-05-18T13:10:23.536Z</time>
      </trkpt>
      <trkpt lat="45.38749" lon="3.81205">
        <ele>1124</ele>
        <time>2025-05-18T13:10:28.203Z</time>
      </trkpt>
      <trkpt lat="45.38742" lon="3.81207">
        <ele>1124</ele>
        <time>2025-05-18T13:10:32.536Z</time>
      </trkpt>
      <trkpt lat="45.38731" lon="3.81209">
        <ele>1121</ele>
        <time>2025-05-18T13:10:37.170Z</time>
      </trkpt>
      <trkpt lat="45.38725" lon="3.81212">
        <ele>1121</ele>
        <time>2025-05-18T13:10:41.502Z</time>
      </trkpt>
      <trkpt lat="45.38716" lon="3.81213">
        <ele>1121</ele>
        <time>2025-05-18T13:10:46.065Z</time>
      </trkpt>
      <trkpt lat="45.3871" lon="3.81215">
        <ele>1121</ele>
        <time>2025-05-18T13:10:50.389Z</time>
      </trkpt>
      <trkpt lat="45.38704" lon="3.81217">
        <ele>1122</ele>
        <time>2025-05-18T13:10:55.328Z</time>
      </trkpt>
      <trkpt lat="45.38698" lon="3.81219">
        <ele>1122</ele>
        <time>2025-05-18T13:10:59.530Z</time>
      </trkpt>
      <trkpt lat="45.3869" lon="3.81222">
        <ele>1122</ele>
        <time>2025-05-18T13:11:04.245Z</time>
      </trkpt>
      <trkpt lat="45.38684" lon="3.81227">
        <ele>1122</ele>
        <time>2025-05-18T13:11:08.541Z</time>
      </trkpt>
      <trkpt lat="45.38679" lon="3.81232">
        <ele>1120</ele>
        <time>2025-05-18T13:11:13.230Z</time>
      </trkpt>
      <trkpt lat="45.38673" lon="3.81237">
        <ele>1117</ele>
        <time>2025-05-18T13:11:17.707Z</time>
      </trkpt>
      <trkpt lat="45.38668" lon="3.81241">
        <ele>1117</ele>
        <time>2025-05-18T13:11:22.226Z</time>
      </trkpt>
      <trkpt lat="45.38662" lon="3.81244">
        <ele>1117</ele>
        <time>2025-05-18T13:11:26.532Z</time>
      </trkpt>
      <trkpt lat="45.38656" lon="3.81247">
        <ele>1117</ele>
        <time>2025-05-18T13:11:31.029Z</time>
      </trkpt>
      <trkpt lat="45.38645" lon="3.8125">
        <ele>1117</ele>
        <time>2025-05-18T13:11:35.527Z</time>
      </trkpt>
      <trkpt lat="45.38638" lon="3.81251">
        <ele>1117</ele>
        <time>2025-05-18T13:11:40.027Z</time>
      </trkpt>
      <trkpt lat="45.38633" lon="3.81252">
        <ele>1117</ele>
        <time>2025-05-18T13:11:44.508Z</time>
      </trkpt>
      <trkpt lat="45.38627" lon="3.81249">
        <ele>1117</ele>
        <time>2025-05-18T13:11:48.541Z</time>
      </trkpt>
      <trkpt lat="45.38621" lon="3.81247">
        <ele>1116</ele>
        <time>2025-05-18T13:11:52.924Z</time>
      </trkpt>
      <trkpt lat="45.38617" lon="3.81246">
        <ele>1116</ele>
        <time>2025-05-18T13:11:57.206Z</time>
      </trkpt>
      <trkpt lat="45.38613" lon="3.81242">
        <ele>1116</ele>
        <time>2025-05-18T13:12:01.529Z</time>
      </trkpt>
      <trkpt lat="45.38608" lon="3.81237">
        <ele>1116</ele>
        <time>2025-05-18T13:12:05.913Z</time>
      </trkpt>
      <trkpt lat="45.38603" lon="3.81231">
        <ele>1120</ele>
        <time>2025-05-18T13:12:10.324Z</time>
      </trkpt>
      <trkpt lat="45.38599" lon="3.81229">
        <ele>1120</ele>
        <time>2025-05-18T13:12:14.541Z</time>
      </trkpt>
      <trkpt lat="45.38595" lon="3.81226">
        <ele>1118</ele>
        <time>2025-05-18T13:12:18.927Z</time>
      </trkpt>
      <trkpt lat="45.38589" lon="3.81221">
        <ele>1118</ele>
        <time>2025-05-18T13:12:23.532Z</time>
      </trkpt>
      <trkpt lat="45.38584" lon="3.81218">
        <ele>1118</ele>
        <time>2025-05-18T13:12:28.304Z</time>
      </trkpt>
      <trkpt lat="45.3858" lon="3.81214">
        <ele>1118</ele>
        <time>2025-05-18T13:12:32.368Z</time>
      </trkpt>
      <trkpt lat="45.38575" lon="3.81208">
        <ele>1122</ele>
        <time>2025-05-18T13:12:36.504Z</time>
      </trkpt>
      <trkpt lat="45.38572" lon="3.81202">
        <ele>1122</ele>
        <time>2025-05-18T13:12:40.522Z</time>
      </trkpt>
      <trkpt lat="45.38567" lon="3.81197">
        <ele>1120</ele>
        <time>2025-05-18T13:12:45.534Z</time>
      </trkpt>
      <trkpt lat="45.38562" lon="3.81192">
        <ele>1120</ele>
        <time>2025-05-18T13:12:50.515Z</time>
      </trkpt>
      <trkpt lat="45.38558" lon="3.81186">
        <ele>1120</ele>
        <time>2025-05-18T13:12:55.533Z</time>
      </trkpt>
      <trkpt lat="45.38553" lon="3.8118">
        <ele>1125</ele>
        <time>2025-05-18T13:13:00.509Z</time>
      </trkpt>
      <trkpt lat="45.38547" lon="3.81179">
        <ele>1125</ele>
        <time>2025-05-18T13:13:04.536Z</time>
      </trkpt>
      <trkpt lat="45.38537" lon="3.81179">
        <ele>1126</ele>
        <time>2025-05-18T13:13:09.545Z</time>
      </trkpt>
      <trkpt lat="45.38529" lon="3.81181">
        <ele>1120</ele>
        <time>2025-05-18T13:13:14.539Z</time>
      </trkpt>
      <trkpt lat="45.3852" lon="3.81182">
        <ele>1120</ele>
        <time>2025-05-18T13:13:19.548Z</time>
      </trkpt>
      <trkpt lat="45.3851" lon="3.81183">
        <ele>1123</ele>
        <time>2025-05-18T13:13:24.532Z</time>
      </trkpt>
      <trkpt lat="45.38501" lon="3.81184">
        <ele>1123</ele>
        <time>2025-05-18T13:13:28.609Z</time>
      </trkpt>
      <trkpt lat="45.38497" lon="3.81186">
        <ele>1123</ele>
        <time>2025-05-18T13:13:33.168Z</time>
      </trkpt>
      <trkpt lat="45.38491" lon="3.81189">
        <ele>1123</ele>
        <time>2025-05-18T13:13:37.523Z</time>
      </trkpt>
      <trkpt lat="45.38483" lon="3.81193">
        <ele>1123</ele>
        <time>2025-05-18T13:13:42.530Z</time>
      </trkpt>
      <trkpt lat="45.38475" lon="3.81197">
        <ele>1123</ele>
        <time>2025-05-18T13:13:47.027Z</time>
      </trkpt>
      <trkpt lat="45.38469" lon="3.81201">
        <ele>1123</ele>
        <time>2025-05-18T13:13:51.368Z</time>
      </trkpt>
      <trkpt lat="45.38462" lon="3.81204">
        <ele>1123</ele>
        <time>2025-05-18T13:13:55.607Z</time>
      </trkpt>
      <trkpt lat="45.38453" lon="3.81209">
        <ele>1118</ele>
        <time>2025-05-18T13:14:00.144Z</time>
      </trkpt>
      <trkpt lat="45.38445" lon="3.81212">
        <ele>1118</ele>
        <time>2025-05-18T13:14:04.553Z</time>
      </trkpt>
      <trkpt lat="45.38436" lon="3.81215">
        <ele>1118</ele>
        <time>2025-05-18T13:14:08.944Z</time>
      </trkpt>
      <trkpt lat="45.3843" lon="3.81218">
        <ele>1117</ele>
        <time>2025-05-18T13:14:13.028Z</time>
      </trkpt>
      <trkpt lat="45.38425" lon="3.8122">
        <ele>1117</ele>
        <time>2025-05-18T13:14:17.518Z</time>
      </trkpt>
      <trkpt lat="45.38419" lon="3.81222">
        <ele>1117</ele>
        <time>2025-05-18T13:14:22.289Z</time>
      </trkpt>
      <trkpt lat="45.38413" lon="3.81226">
        <ele>1117</ele>
        <time>2025-05-18T13:14:26.524Z</time>
      </trkpt>
      <trkpt lat="45.38408" lon="3.8123">
        <ele>1117</ele>
        <time>2025-05-18T13:14:31.263Z</time>
      </trkpt>
      <trkpt lat="45.38402" lon="3.81233">
        <ele>1117</ele>
        <time>2025-05-18T13:14:35.987Z</time>
      </trkpt>
      <trkpt lat="45.38396" lon="3.81234">
        <ele>1117</ele>
        <time>2025-05-18T13:14:40.531Z</time>
      </trkpt>
      <trkpt lat="45.3839" lon="3.81234">
        <ele>1117</ele>
        <time>2025-05-18T13:14:44.985Z</time>
      </trkpt>
      <trkpt lat="45.38384" lon="3.81234">
        <ele>1117</ele>
        <time>2025-05-18T13:14:49.308Z</time>
      </trkpt>
      <trkpt lat="45.38377" lon="3.81234">
        <ele>1117</ele>
        <time>2025-05-18T13:14:53.566Z</time>
      </trkpt>
      <trkpt lat="45.38372" lon="3.81236">
        <ele>1115</ele>
        <time>2025-05-18T13:14:57.765Z</time>
      </trkpt>
      <trkpt lat="45.38364" lon="3.81236">
        <ele>1115</ele>
        <time>2025-05-18T13:15:02.524Z</time>
      </trkpt>
      <trkpt lat="45.38356" lon="3.81239">
        <ele>1115</ele>
        <time>2025-05-18T13:15:07.543Z</time>
      </trkpt>
      <trkpt lat="45.38349" lon="3.81241">
        <ele>1115</ele>
        <time>2025-05-18T13:15:11.913Z</time>
      </trkpt>
      <trkpt lat="45.38342" lon="3.81242">
        <ele>1113</ele>
        <time>2025-05-18T13:15:16.537Z</time>
      </trkpt>
      <trkpt lat="45.38333" lon="3.81244">
        <ele>1113</ele>
        <time>2025-05-18T13:15:21.222Z</time>
      </trkpt>
      <trkpt lat="45.38327" lon="3.81245">
        <ele>1113</ele>
        <time>2025-05-18T13:15:25.505Z</time>
      </trkpt>
      <trkpt lat="45.38321" lon="3.81248">
        <ele>1113</ele>
        <time>2025-05-18T13:15:30.009Z</time>
      </trkpt>
      <trkpt lat="45.38313" lon="3.81248">
        <ele>1111</ele>
        <time>2025-05-18T13:15:34.508Z</time>
      </trkpt>
      <trkpt lat="45.38303" lon="3.8125">
        <ele>1111</ele>
        <time>2025-05-18T13:15:39.383Z</time>
      </trkpt>
      <trkpt lat="45.38297" lon="3.81251">
        <ele>1111</ele>
        <time>2025-05-18T13:15:43.549Z</time>
      </trkpt>
      <trkpt lat="45.38296" lon="3.81251">
        <ele>1111</ele>
        <time>2025-05-18T13:15:48.547Z</time>
      </trkpt>
      <trkpt lat="45.38294" lon="3.81251">
        <ele>1111</ele>
        <time>2025-05-18T13:16:13.545Z</time>
      </trkpt>
      <trkpt lat="45.38293" lon="3.81252">
        <ele>1111</ele>
        <time>2025-05-18T13:17:03.548Z</time>
      </trkpt>
      <trkpt lat="45.38292" lon="3.81254">
        <ele>1111</ele>
        <time>2025-05-18T13:17:08.561Z</time>
      </trkpt>
      <trkpt lat="45.38288" lon="3.81256">
        <ele>1113</ele>
        <time>2025-05-18T13:17:13.528Z</time>
      </trkpt>
      <trkpt lat="45.3828" lon="3.81258">
        <ele>1113</ele>
        <time>2025-05-18T13:17:18.541Z</time>
      </trkpt>
      <trkpt lat="45.38273" lon="3.81261">
        <ele>1113</ele>
        <time>2025-05-18T13:17:23.536Z</time>
      </trkpt>
      <trkpt lat="45.38267" lon="3.81266">
        <ele>1107</ele>
        <time>2025-05-18T13:17:27.531Z</time>
      </trkpt>
      <trkpt lat="45.38262" lon="3.8127">
        <ele>1109</ele>
        <time>2025-05-18T13:17:31.664Z</time>
      </trkpt>
      <trkpt lat="45.38255" lon="3.81274">
        <ele>1109</ele>
        <time>2025-05-18T13:17:36.540Z</time>
      </trkpt>
      <trkpt lat="45.38251" lon="3.81278">
        <ele>1109</ele>
        <time>2025-05-18T13:17:40.807Z</time>
      </trkpt>
      <trkpt lat="45.38247" lon="3.81283">
        <ele>1109</ele>
        <time>2025-05-18T13:17:45.279Z</time>
      </trkpt>
      <trkpt lat="45.38243" lon="3.8129">
        <ele>1109</ele>
        <time>2025-05-18T13:17:49.552Z</time>
      </trkpt>
      <trkpt lat="45.38237" lon="3.81296">
        <ele>1106</ele>
        <time>2025-05-18T13:17:54.349Z</time>
      </trkpt>
      <trkpt lat="45.38233" lon="3.81301">
        <ele>1108</ele>
        <time>2025-05-18T13:17:58.572Z</time>
      </trkpt>
      <trkpt lat="45.38228" lon="3.81307">
        <ele>1108</ele>
        <time>2025-05-18T13:18:03.531Z</time>
      </trkpt>
      <trkpt lat="45.38225" lon="3.81312">
        <ele>1108</ele>
        <time>2025-05-18T13:18:08.545Z</time>
      </trkpt>
      <trkpt lat="45.38224" lon="3.81312">
        <ele>1108</ele>
        <time>2025-05-18T13:18:13.544Z</time>
      </trkpt>
      <trkpt lat="45.38221" lon="3.81317">
        <ele>1108</ele>
        <time>2025-05-18T13:18:18.551Z</time>
      </trkpt>
      <trkpt lat="45.38216" lon="3.81323">
        <ele>1107</ele>
        <time>2025-05-18T13:18:23.555Z</time>
      </trkpt>
      <trkpt lat="45.38209" lon="3.81329">
        <ele>1107</ele>
        <time>2025-05-18T13:18:28.501Z</time>
      </trkpt>
      <trkpt lat="45.38204" lon="3.81334">
        <ele>1106</ele>
        <time>2025-05-18T13:18:32.536Z</time>
      </trkpt>
      <trkpt lat="45.38199" lon="3.8134">
        <ele>1106</ele>
        <time>2025-05-18T13:18:37.535Z</time>
      </trkpt>
      <trkpt lat="45.38192" lon="3.81348">
        <ele>1104</ele>
        <time>2025-05-18T13:18:42.532Z</time>
      </trkpt>
      <trkpt lat="45.38186" lon="3.81353">
        <ele>1104</ele>
        <time>2025-05-18T13:18:47.468Z</time>
      </trkpt>
      <trkpt lat="45.38181" lon="3.81359">
        <ele>1104</ele>
        <time>2025-05-18T13:18:51.531Z</time>
      </trkpt>
      <trkpt lat="45.38176" lon="3.81364">
        <ele>1103</ele>
        <time>2025-05-18T13:18:55.541Z</time>
      </trkpt>
      <trkpt lat="45.38171" lon="3.81371">
        <ele>1103</ele>
        <time>2025-05-18T13:19:00.287Z</time>
      </trkpt>
      <trkpt lat="45.38167" lon="3.81376">
        <ele>1101</ele>
        <time>2025-05-18T13:19:04.464Z</time>
      </trkpt>
      <trkpt lat="45.38161" lon="3.81381">
        <ele>1101</ele>
        <time>2025-05-18T13:19:08.559Z</time>
      </trkpt>
      <trkpt lat="45.38156" lon="3.81384">
        <ele>1101</ele>
        <time>2025-05-18T13:19:12.986Z</time>
      </trkpt>
      <trkpt lat="45.3815" lon="3.81388">
        <ele>1101</ele>
        <time>2025-05-18T13:19:17.285Z</time>
      </trkpt>
      <trkpt lat="45.38145" lon="3.81392">
        <ele>1101</ele>
        <time>2025-05-18T13:19:21.404Z</time>
      </trkpt>
      <trkpt lat="45.3814" lon="3.81397">
        <ele>1101</ele>
        <time>2025-05-18T13:19:25.666Z</time>
      </trkpt>
      <trkpt lat="45.38134" lon="3.81401">
        <ele>1101</ele>
        <time>2025-05-18T13:19:30.069Z</time>
      </trkpt>
      <trkpt lat="45.3813" lon="3.81405">
        <ele>1099</ele>
        <time>2025-05-18T13:19:34.131Z</time>
      </trkpt>
      <trkpt lat="45.38126" lon="3.81411">
        <ele>1099</ele>
        <time>2025-05-18T13:19:38.431Z</time>
      </trkpt>
      <trkpt lat="45.3812" lon="3.81421">
        <ele>1098</ele>
        <time>2025-05-18T13:19:43.520Z</time>
      </trkpt>
      <trkpt lat="45.38115" lon="3.81426">
        <ele>1098</ele>
        <time>2025-05-18T13:19:47.539Z</time>
      </trkpt>
      <trkpt lat="45.38109" lon="3.81431">
        <ele>1097</ele>
        <time>2025-05-18T13:19:52.187Z</time>
      </trkpt>
      <trkpt lat="45.38104" lon="3.81435">
        <ele>1097</ele>
        <time>2025-05-18T13:19:56.570Z</time>
      </trkpt>
      <trkpt lat="45.38101" lon="3.81441">
        <ele>1097</ele>
        <time>2025-05-18T13:20:00.746Z</time>
      </trkpt>
      <trkpt lat="45.38096" lon="3.81447">
        <ele>1096</ele>
        <time>2025-05-18T13:20:05.004Z</time>
      </trkpt>
      <trkpt lat="45.3809" lon="3.81453">
        <ele>1096</ele>
        <time>2025-05-18T13:20:09.264Z</time>
      </trkpt>
      <trkpt lat="45.38085" lon="3.81457">
        <ele>1096</ele>
        <time>2025-05-18T13:20:13.510Z</time>
      </trkpt>
      <trkpt lat="45.38079" lon="3.81457">
        <ele>1096</ele>
        <time>2025-05-18T13:20:17.948Z</time>
      </trkpt>
      <trkpt lat="45.38074" lon="3.81454">
        <ele>1096</ele>
        <time>2025-05-18T13:20:22.217Z</time>
      </trkpt>
      <trkpt lat="45.38071" lon="3.81451">
        <ele>1096</ele>
        <time>2025-05-18T13:20:26.534Z</time>
      </trkpt>
      <trkpt lat="45.38069" lon="3.81446">
        <ele>1094</ele>
        <time>2025-05-18T13:20:30.806Z</time>
      </trkpt>
      <trkpt lat="45.38067" lon="3.81439">
        <ele>1094</ele>
        <time>2025-05-18T13:20:35.510Z</time>
      </trkpt>
      <trkpt lat="45.38063" lon="3.81431">
        <ele>1094</ele>
        <time>2025-05-18T13:20:40.561Z</time>
      </trkpt>
      <trkpt lat="45.38061" lon="3.81424">
        <ele>1096</ele>
        <time>2025-05-18T13:20:45.045Z</time>
      </trkpt>
      <trkpt lat="45.38057" lon="3.81417">
        <ele>1096</ele>
        <time>2025-05-18T13:20:49.286Z</time>
      </trkpt>
      <trkpt lat="45.38054" lon="3.8141">
        <ele>1096</ele>
        <time>2025-05-18T13:20:53.443Z</time>
      </trkpt>
      <trkpt lat="45.38051" lon="3.81401">
        <ele>1096</ele>
        <time>2025-05-18T13:20:57.767Z</time>
      </trkpt>
      <trkpt lat="45.38047" lon="3.81395">
        <ele>1096</ele>
        <time>2025-05-18T13:21:02.104Z</time>
      </trkpt>
      <trkpt lat="45.38043" lon="3.81388">
        <ele>1096</ele>
        <time>2025-05-18T13:21:06.444Z</time>
      </trkpt>
      <trkpt lat="45.38039" lon="3.81381">
        <ele>1094</ele>
        <time>2025-05-18T13:21:10.867Z</time>
      </trkpt>
      <trkpt lat="45.38036" lon="3.81374">
        <ele>1093</ele>
        <time>2025-05-18T13:21:15.150Z</time>
      </trkpt>
      <trkpt lat="45.38031" lon="3.81367">
        <ele>1093</ele>
        <time>2025-05-18T13:21:19.519Z</time>
      </trkpt>
      <trkpt lat="45.38027" lon="3.8136">
        <ele>1093</ele>
        <time>2025-05-18T13:21:23.517Z</time>
      </trkpt>
      <trkpt lat="45.38022" lon="3.81354">
        <ele>1093</ele>
        <time>2025-05-18T13:21:27.538Z</time>
      </trkpt>
      <trkpt lat="45.38018" lon="3.81346">
        <ele>1092</ele>
        <time>2025-05-18T13:21:32.510Z</time>
      </trkpt>
      <trkpt lat="45.38014" lon="3.8134">
        <ele>1092</ele>
        <time>2025-05-18T13:21:36.539Z</time>
      </trkpt>
      <trkpt lat="45.3801" lon="3.81332">
        <ele>1091</ele>
        <time>2025-05-18T13:21:41.544Z</time>
      </trkpt>
      <trkpt lat="45.38006" lon="3.81324">
        <ele>1091</ele>
        <time>2025-05-18T13:21:46.540Z</time>
      </trkpt>
      <trkpt lat="45.38003" lon="3.81317">
        <ele>1091</ele>
        <time>2025-05-18T13:21:51.570Z</time>
      </trkpt>
      <trkpt lat="45.37999" lon="3.8131">
        <ele>1091</ele>
        <time>2025-05-18T13:21:56.548Z</time>
      </trkpt>
      <trkpt lat="45.37995" lon="3.81302">
        <ele>1091</ele>
        <time>2025-05-18T13:22:01.541Z</time>
      </trkpt>
      <trkpt lat="45.37992" lon="3.81295">
        <ele>1091</ele>
        <time>2025-05-18T13:22:05.555Z</time>
      </trkpt>
      <trkpt lat="45.37988" lon="3.81287">
        <ele>1091</ele>
        <time>2025-05-18T13:22:10.531Z</time>
      </trkpt>
      <trkpt lat="45.37984" lon="3.81279">
        <ele>1092</ele>
        <time>2025-05-18T13:22:15.545Z</time>
      </trkpt>
      <trkpt lat="45.37981" lon="3.81271">
        <ele>1092</ele>
        <time>2025-05-18T13:22:20.529Z</time>
      </trkpt>
      <trkpt lat="45.37978" lon="3.81264">
        <ele>1091</ele>
        <time>2025-05-18T13:22:24.538Z</time>
      </trkpt>
      <trkpt lat="45.37977" lon="3.81254">
        <ele>1091</ele>
        <time>2025-05-18T13:22:29.527Z</time>
      </trkpt>
      <trkpt lat="45.37974" lon="3.81245">
        <ele>1091</ele>
        <time>2025-05-18T13:22:34.533Z</time>
      </trkpt>
      <trkpt lat="45.37972" lon="3.81237">
        <ele>1091</ele>
        <time>2025-05-18T13:22:38.931Z</time>
      </trkpt>
      <trkpt lat="45.37971" lon="3.81229">
        <ele>1091</ele>
        <time>2025-05-18T13:22:43.246Z</time>
      </trkpt>
      <trkpt lat="45.3797" lon="3.81221">
        <ele>1091</ele>
        <time>2025-05-18T13:22:47.464Z</time>
      </trkpt>
      <trkpt lat="45.37971" lon="3.81212">
        <ele>1091</ele>
        <time>2025-05-18T13:22:51.574Z</time>
      </trkpt>
      <trkpt lat="45.3797" lon="3.81203">
        <ele>1092</ele>
        <time>2025-05-18T13:22:55.912Z</time>
      </trkpt>
      <trkpt lat="45.37968" lon="3.81194">
        <ele>1092</ele>
        <time>2025-05-18T13:23:00.068Z</time>
      </trkpt>
      <trkpt lat="45.37965" lon="3.81184">
        <ele>1092</ele>
        <time>2025-05-18T13:23:04.519Z</time>
      </trkpt>
      <trkpt lat="45.37961" lon="3.81178">
        <ele>1092</ele>
        <time>2025-05-18T13:23:08.537Z</time>
      </trkpt>
      <trkpt lat="45.37957" lon="3.81171">
        <ele>1090</ele>
        <time>2025-05-18T13:23:13.190Z</time>
      </trkpt>
      <trkpt lat="45.37953" lon="3.81164">
        <ele>1090</ele>
        <time>2025-05-18T13:23:17.520Z</time>
      </trkpt>
      <trkpt lat="45.37951" lon="3.81156">
        <ele>1090</ele>
        <time>2025-05-18T13:23:21.570Z</time>
      </trkpt>
      <trkpt lat="45.37948" lon="3.81149">
        <ele>1089</ele>
        <time>2025-05-18T13:23:25.803Z</time>
      </trkpt>
      <trkpt lat="45.37944" lon="3.81143">
        <ele>1089</ele>
        <time>2025-05-18T13:23:29.847Z</time>
      </trkpt>
      <trkpt lat="45.37939" lon="3.81137">
        <ele>1089</ele>
        <time>2025-05-18T13:23:33.925Z</time>
      </trkpt>
      <trkpt lat="45.37934" lon="3.81132">
        <ele>1089</ele>
        <time>2025-05-18T13:23:37.987Z</time>
      </trkpt>
      <trkpt lat="45.37929" lon="3.81126">
        <ele>1088</ele>
        <time>2025-05-18T13:23:42.066Z</time>
      </trkpt>
      <trkpt lat="45.37924" lon="3.81122">
        <ele>1086</ele>
        <time>2025-05-18T13:23:46.187Z</time>
      </trkpt>
      <trkpt lat="45.37917" lon="3.81117">
        <ele>1086</ele>
        <time>2025-05-18T13:23:50.283Z</time>
      </trkpt>
      <trkpt lat="45.37912" lon="3.81112">
        <ele>1086</ele>
        <time>2025-05-18T13:23:54.403Z</time>
      </trkpt>
      <trkpt lat="45.37907" lon="3.81108">
        <ele>1086</ele>
        <time>2025-05-18T13:23:58.538Z</time>
      </trkpt>
      <trkpt lat="45.37901" lon="3.81101">
        <ele>1082</ele>
        <time>2025-05-18T13:24:03.516Z</time>
      </trkpt>
      <trkpt lat="45.37898" lon="3.81094">
        <ele>1080</ele>
        <time>2025-05-18T13:24:07.787Z</time>
      </trkpt>
      <trkpt lat="45.37896" lon="3.81086">
        <ele>1080</ele>
        <time>2025-05-18T13:24:12.447Z</time>
      </trkpt>
      <trkpt lat="45.37891" lon="3.81078">
        <ele>1080</ele>
        <time>2025-05-18T13:24:16.689Z</time>
      </trkpt>
      <trkpt lat="45.37887" lon="3.8107">
        <ele>1080</ele>
        <time>2025-05-18T13:24:21.407Z</time>
      </trkpt>
      <trkpt lat="45.37884" lon="3.81062">
        <ele>1080</ele>
        <time>2025-05-18T13:24:25.583Z</time>
      </trkpt>
      <trkpt lat="45.37882" lon="3.81054">
        <ele>1080</ele>
        <time>2025-05-18T13:24:29.809Z</time>
      </trkpt>
      <trkpt lat="45.37881" lon="3.81045">
        <ele>1080</ele>
        <time>2025-05-18T13:24:34.515Z</time>
      </trkpt>
      <trkpt lat="45.37878" lon="3.81037">
        <ele>1080</ele>
        <time>2025-05-18T13:24:38.525Z</time>
      </trkpt>
      <trkpt lat="45.37875" lon="3.8103">
        <ele>1074</ele>
        <time>2025-05-18T13:24:42.703Z</time>
      </trkpt>
      <trkpt lat="45.37871" lon="3.81024">
        <ele>1074</ele>
        <time>2025-05-18T13:24:46.806Z</time>
      </trkpt>
      <trkpt lat="45.37865" lon="3.8102">
        <ele>1074</ele>
        <time>2025-05-18T13:24:50.968Z</time>
      </trkpt>
      <trkpt lat="45.37861" lon="3.81015">
        <ele>1074</ele>
        <time>2025-05-18T13:24:55.123Z</time>
      </trkpt>
      <trkpt lat="45.37856" lon="3.81011">
        <ele>1074</ele>
        <time>2025-05-18T13:24:59.383Z</time>
      </trkpt>
      <trkpt lat="45.37851" lon="3.81006">
        <ele>1074</ele>
        <time>2025-05-18T13:25:03.529Z</time>
      </trkpt>
      <trkpt lat="45.37847" lon="3.81">
        <ele>1068</ele>
        <time>2025-05-18T13:25:07.768Z</time>
      </trkpt>
      <trkpt lat="45.37843" lon="3.80994">
        <ele>1068</ele>
        <time>2025-05-18T13:25:12.262Z</time>
      </trkpt>
      <trkpt lat="45.37838" lon="3.80989">
        <ele>1068</ele>
        <time>2025-05-18T13:25:16.866Z</time>
      </trkpt>
      <trkpt lat="45.37831" lon="3.80983">
        <ele>1068</ele>
        <time>2025-05-18T13:25:30.544Z</time>
      </trkpt>
      <trkpt lat="45.37833" lon="3.80977">
        <ele>1068</ele>
        <time>2025-05-18T13:25:35.312Z</time>
      </trkpt>
      <trkpt lat="45.37832" lon="3.80969">
        <ele>1068</ele>
        <time>2025-05-18T13:25:39.537Z</time>
      </trkpt>
      <trkpt lat="45.37831" lon="3.80961">
        <ele>1068</ele>
        <time>2025-05-18T13:25:44.546Z</time>
      </trkpt>
      <trkpt lat="45.37831" lon="3.80959">
        <ele>1068</ele>
        <time>2025-05-18T13:25:49.548Z</time>
      </trkpt>
      <trkpt lat="45.3783" lon="3.80959">
        <ele>1068</ele>
        <time>2025-05-18T13:25:54.504Z</time>
      </trkpt>
      <trkpt lat="45.3783" lon="3.80967">
        <ele>1068</ele>
        <time>2025-05-18T13:25:58.515Z</time>
      </trkpt>
      <trkpt lat="45.37832" lon="3.80974">
        <ele>1068</ele>
        <time>2025-05-18T13:26:02.548Z</time>
      </trkpt>
      <trkpt lat="45.37833" lon="3.80984">
        <ele>1068</ele>
        <time>2025-05-18T13:26:07.557Z</time>
      </trkpt>
      <trkpt lat="45.37837" lon="3.80993">
        <ele>1068</ele>
        <time>2025-05-18T13:26:12.530Z</time>
      </trkpt>
      <trkpt lat="45.37842" lon="3.80998">
        <ele>1068</ele>
        <time>2025-05-18T13:26:17.523Z</time>
      </trkpt>
      <trkpt lat="45.37846" lon="3.81002">
        <ele>1068</ele>
        <time>2025-05-18T13:26:21.529Z</time>
      </trkpt>
      <trkpt lat="45.37852" lon="3.81009">
        <ele>1074</ele>
        <time>2025-05-18T13:26:26.519Z</time>
      </trkpt>
      <trkpt lat="45.37857" lon="3.81016">
        <ele>1074</ele>
        <time>2025-05-18T13:26:31.523Z</time>
      </trkpt>
      <trkpt lat="45.37862" lon="3.8102">
        <ele>1074</ele>
        <time>2025-05-18T13:26:36.546Z</time>
      </trkpt>
      <trkpt lat="45.37867" lon="3.81025">
        <ele>1074</ele>
        <time>2025-05-18T13:26:41.525Z</time>
      </trkpt>
      <trkpt lat="45.37872" lon="3.81031">
        <ele>1074</ele>
        <time>2025-05-18T13:26:46.516Z</time>
      </trkpt>
      <trkpt lat="45.37878" lon="3.81032">
        <ele>1080</ele>
        <time>2025-05-18T13:26:51.533Z</time>
      </trkpt>
      <trkpt lat="45.37884" lon="3.81031">
        <ele>1080</ele>
        <time>2025-05-18T13:26:56.546Z</time>
      </trkpt>
      <trkpt lat="45.3789" lon="3.81032">
        <ele>1080</ele>
        <time>2025-05-18T13:27:01.545Z</time>
      </trkpt>
      <trkpt lat="45.37896" lon="3.81035">
        <ele>1080</ele>
        <time>2025-05-18T13:27:06.517Z</time>
      </trkpt>
      <trkpt lat="45.37901" lon="3.81037">
        <ele>1080</ele>
        <time>2025-05-18T13:27:10.517Z</time>
      </trkpt>
      <trkpt lat="45.37908" lon="3.8104">
        <ele>1086</ele>
        <time>2025-05-18T13:27:14.530Z</time>
      </trkpt>
      <trkpt lat="45.37913" lon="3.81042">
        <ele>1086</ele>
        <time>2025-05-18T13:27:18.664Z</time>
      </trkpt>
      <trkpt lat="45.3792" lon="3.81044">
        <ele>1085</ele>
        <time>2025-05-18T13:27:23.324Z</time>
      </trkpt>
      <trkpt lat="45.37926" lon="3.81045">
        <ele>1085</ele>
        <time>2025-05-18T13:27:27.531Z</time>
      </trkpt>
      <trkpt lat="45.37933" lon="3.81047">
        <ele>1091</ele>
        <time>2025-05-18T13:27:32.384Z</time>
      </trkpt>
      <trkpt lat="45.37939" lon="3.81047">
        <ele>1091</ele>
        <time>2025-05-18T13:27:36.626Z</time>
      </trkpt>
      <trkpt lat="45.37946" lon="3.81047">
        <ele>1091</ele>
        <time>2025-05-18T13:27:41.514Z</time>
      </trkpt>
      <trkpt lat="45.37952" lon="3.81048">
        <ele>1091</ele>
        <time>2025-05-18T13:27:45.948Z</time>
      </trkpt>
      <trkpt lat="45.37959" lon="3.8105">
        <ele>1094</ele>
        <time>2025-05-18T13:27:50.487Z</time>
      </trkpt>
      <trkpt lat="45.37964" lon="3.81049">
        <ele>1094</ele>
        <time>2025-05-18T13:27:54.730Z</time>
      </trkpt>
      <trkpt lat="45.37969" lon="3.8105">
        <ele>1094</ele>
        <time>2025-05-18T13:27:59.105Z</time>
      </trkpt>
      <trkpt lat="45.37975" lon="3.81049">
        <ele>1094</ele>
        <time>2025-05-18T13:28:03.366Z</time>
      </trkpt>
      <trkpt lat="45.3798" lon="3.81048">
        <ele>1094</ele>
        <time>2025-05-18T13:28:07.486Z</time>
      </trkpt>
      <trkpt lat="45.37986" lon="3.81048">
        <ele>1094</ele>
        <time>2025-05-18T13:28:11.911Z</time>
      </trkpt>
      <trkpt lat="45.3799" lon="3.81049">
        <ele>1097</ele>
        <time>2025-05-18T13:28:16.402Z</time>
      </trkpt>
      <trkpt lat="45.37995" lon="3.8105">
        <ele>1097</ele>
        <time>2025-05-18T13:28:20.525Z</time>
      </trkpt>
      <trkpt lat="45.37999" lon="3.81052">
        <ele>1097</ele>
        <time>2025-05-18T13:28:24.669Z</time>
      </trkpt>
      <trkpt lat="45.38004" lon="3.81053">
        <ele>1097</ele>
        <time>2025-05-18T13:28:29.322Z</time>
      </trkpt>
      <trkpt lat="45.3801" lon="3.81054">
        <ele>1097</ele>
        <time>2025-05-18T13:28:34.303Z</time>
      </trkpt>
      <trkpt lat="45.38014" lon="3.81055">
        <ele>1101</ele>
        <time>2025-05-18T13:28:38.370Z</time>
      </trkpt>
      <trkpt lat="45.38019" lon="3.81055">
        <ele>1101</ele>
        <time>2025-05-18T13:28:42.541Z</time>
      </trkpt>
      <trkpt lat="45.38023" lon="3.81057">
        <ele>1101</ele>
        <time>2025-05-18T13:28:46.527Z</time>
      </trkpt>
      <trkpt lat="45.3803" lon="3.81056">
        <ele>1101</ele>
        <time>2025-05-18T13:28:51.511Z</time>
      </trkpt>
      <trkpt lat="45.38034" lon="3.81055">
        <ele>1101</ele>
        <time>2025-05-18T13:28:55.523Z</time>
      </trkpt>
      <trkpt lat="45.38038" lon="3.81053">
        <ele>1101</ele>
        <time>2025-05-18T13:28:59.541Z</time>
      </trkpt>
      <trkpt lat="45.38047" lon="3.81051">
        <ele>1106</ele>
        <time>2025-05-18T13:29:04.533Z</time>
      </trkpt>
      <trkpt lat="45.38053" lon="3.8105">
        <ele>1106</ele>
        <time>2025-05-18T13:29:08.546Z</time>
      </trkpt>
      <trkpt lat="45.38061" lon="3.81049">
        <ele>1106</ele>
        <time>2025-05-18T13:29:13.523Z</time>
      </trkpt>
      <trkpt lat="45.38067" lon="3.81048">
        <ele>1106</ele>
        <time>2025-05-18T13:29:18.104Z</time>
      </trkpt>
      <trkpt lat="45.38072" lon="3.81045">
        <ele>1109</ele>
        <time>2025-05-18T13:29:22.546Z</time>
      </trkpt>
      <trkpt lat="45.38078" lon="3.81043">
        <ele>1109</ele>
        <time>2025-05-18T13:29:27.066Z</time>
      </trkpt>
      <trkpt lat="45.38084" lon="3.81043">
        <ele>1109</ele>
        <time>2025-05-18T13:29:31.270Z</time>
      </trkpt>
      <trkpt lat="45.3809" lon="3.81045">
        <ele>1109</ele>
        <time>2025-05-18T13:29:35.309Z</time>
      </trkpt>
      <trkpt lat="45.38095" lon="3.81043">
        <ele>1109</ele>
        <time>2025-05-18T13:29:39.510Z</time>
      </trkpt>
      <trkpt lat="45.38101" lon="3.8104">
        <ele>1113</ele>
        <time>2025-05-18T13:29:43.787Z</time>
      </trkpt>
      <trkpt lat="45.38107" lon="3.81036">
        <ele>1113</ele>
        <time>2025-05-18T13:29:47.903Z</time>
      </trkpt>
      <trkpt lat="45.38112" lon="3.81033">
        <ele>1113</ele>
        <time>2025-05-18T13:29:52.525Z</time>
      </trkpt>
      <trkpt lat="45.38118" lon="3.81032">
        <ele>1113</ele>
        <time>2025-05-18T13:29:56.849Z</time>
      </trkpt>
      <trkpt lat="45.38124" lon="3.8103">
        <ele>1113</ele>
        <time>2025-05-18T13:30:01.247Z</time>
      </trkpt>
      <trkpt lat="45.3813" lon="3.81029">
        <ele>1116</ele>
        <time>2025-05-18T13:30:06.087Z</time>
      </trkpt>
      <trkpt lat="45.38135" lon="3.81028">
        <ele>1116</ele>
        <time>2025-05-18T13:30:10.526Z</time>
      </trkpt>
      <trkpt lat="45.38141" lon="3.81025">
        <ele>1116</ele>
        <time>2025-05-18T13:30:15.123Z</time>
      </trkpt>
      <trkpt lat="45.38146" lon="3.81022">
        <ele>1116</ele>
        <time>2025-05-18T13:30:19.473Z</time>
      </trkpt>
      <trkpt lat="45.38152" lon="3.81021">
        <ele>1116</ele>
        <time>2025-05-18T13:30:23.530Z</time>
      </trkpt>
      <trkpt lat="45.38158" lon="3.81021">
        <ele>1119</ele>
        <time>2025-05-18T13:30:27.810Z</time>
      </trkpt>
      <trkpt lat="45.38166" lon="3.8102">
        <ele>1119</ele>
        <time>2025-05-18T13:30:32.045Z</time>
      </trkpt>
      <trkpt lat="45.38173" lon="3.81019">
        <ele>1119</ele>
        <time>2025-05-18T13:30:36.527Z</time>
      </trkpt>
      <trkpt lat="45.38179" lon="3.81018">
        <ele>1119</ele>
        <time>2025-05-18T13:30:40.970Z</time>
      </trkpt>
      <trkpt lat="45.38185" lon="3.81015">
        <ele>1122</ele>
        <time>2025-05-18T13:30:45.309Z</time>
      </trkpt>
      <trkpt lat="45.38191" lon="3.81013">
        <ele>1120</ele>
        <time>2025-05-18T13:30:49.544Z</time>
      </trkpt>
      <trkpt lat="45.38196" lon="3.81011">
        <ele>1120</ele>
        <time>2025-05-18T13:30:54.063Z</time>
      </trkpt>
      <trkpt lat="45.38201" lon="3.8101">
        <ele>1120</ele>
        <time>2025-05-18T13:30:58.532Z</time>
      </trkpt>
      <trkpt lat="45.38207" lon="3.81011">
        <ele>1120</ele>
        <time>2025-05-18T13:31:03.231Z</time>
      </trkpt>
      <trkpt lat="45.38213" lon="3.81009">
        <ele>1123</ele>
        <time>2025-05-18T13:31:07.345Z</time>
      </trkpt>
      <trkpt lat="45.38221" lon="3.81005">
        <ele>1123</ele>
        <time>2025-05-18T13:31:11.383Z</time>
      </trkpt>
      <trkpt lat="45.38227" lon="3.81004">
        <ele>1123</ele>
        <time>2025-05-18T13:31:15.848Z</time>
      </trkpt>
      <trkpt lat="45.38232" lon="3.81004">
        <ele>1123</ele>
        <time>2025-05-18T13:31:20.289Z</time>
      </trkpt>
      <trkpt lat="45.38238" lon="3.81002">
        <ele>1124</ele>
        <time>2025-05-18T13:31:24.524Z</time>
      </trkpt>
      <trkpt lat="45.38243" lon="3.81002">
        <ele>1124</ele>
        <time>2025-05-18T13:31:29.170Z</time>
      </trkpt>
      <trkpt lat="45.38248" lon="3.81004">
        <ele>1124</ele>
        <time>2025-05-18T13:31:33.510Z</time>
      </trkpt>
      <trkpt lat="45.38253" lon="3.81003">
        <ele>1124</ele>
        <time>2025-05-18T13:31:38.068Z</time>
      </trkpt>
      <trkpt lat="45.38258" lon="3.81004">
        <ele>1124</ele>
        <time>2025-05-18T13:31:42.517Z</time>
      </trkpt>
      <trkpt lat="45.38265" lon="3.81007">
        <ele>1123</ele>
        <time>2025-05-18T13:31:46.570Z</time>
      </trkpt>
      <trkpt lat="45.3827" lon="3.81011">
        <ele>1123</ele>
        <time>2025-05-18T13:31:51.044Z</time>
      </trkpt>
      <trkpt lat="45.38276" lon="3.81011">
        <ele>1123</ele>
        <time>2025-05-18T13:31:55.229Z</time>
      </trkpt>
      <trkpt lat="45.38282" lon="3.81008">
        <ele>1123</ele>
        <time>2025-05-18T13:31:59.244Z</time>
      </trkpt>
      <trkpt lat="45.38287" lon="3.81005">
        <ele>1123</ele>
        <time>2025-05-18T13:32:03.913Z</time>
      </trkpt>
      <trkpt lat="45.38293" lon="3.81">
        <ele>1123</ele>
        <time>2025-05-18T13:32:08.532Z</time>
      </trkpt>
      <trkpt lat="45.38298" lon="3.80996">
        <ele>1123</ele>
        <time>2025-05-18T13:32:12.801Z</time>
      </trkpt>
      <trkpt lat="45.38303" lon="3.80992">
        <ele>1123</ele>
        <time>2025-05-18T13:32:17.206Z</time>
      </trkpt>
      <trkpt lat="45.38308" lon="3.80984">
        <ele>1123</ele>
        <time>2025-05-18T13:32:21.663Z</time>
      </trkpt>
      <trkpt lat="45.38315" lon="3.80978">
        <ele>1123</ele>
        <time>2025-05-18T13:32:26.144Z</time>
      </trkpt>
      <trkpt lat="45.38321" lon="3.80974">
        <ele>1125</ele>
        <time>2025-05-18T13:32:30.427Z</time>
      </trkpt>
      <trkpt lat="45.38328" lon="3.80967">
        <ele>1125</ele>
        <time>2025-05-18T13:32:35.122Z</time>
      </trkpt>
      <trkpt lat="45.38334" lon="3.80961">
        <ele>1125</ele>
        <time>2025-05-18T13:32:39.518Z</time>
      </trkpt>
      <trkpt lat="45.38339" lon="3.80956">
        <ele>1126</ele>
        <time>2025-05-18T13:32:44.529Z</time>
      </trkpt>
      <trkpt lat="45.38341" lon="3.80953">
        <ele>1126</ele>
        <time>2025-05-18T13:32:48.540Z</time>
      </trkpt>
      <trkpt lat="45.38345" lon="3.80946">
        <ele>1126</ele>
        <time>2025-05-18T13:32:53.326Z</time>
      </trkpt>
      <trkpt lat="45.38348" lon="3.80938">
        <ele>1130</ele>
        <time>2025-05-18T13:32:58.068Z</time>
      </trkpt>
      <trkpt lat="45.38354" lon="3.8093">
        <ele>1130</ele>
        <time>2025-05-18T13:33:02.083Z</time>
      </trkpt>
      <trkpt lat="45.3836" lon="3.80922">
        <ele>1130</ele>
        <time>2025-05-18T13:33:06.556Z</time>
      </trkpt>
      <trkpt lat="45.38365" lon="3.80914">
        <ele>1130</ele>
        <time>2025-05-18T13:33:10.667Z</time>
      </trkpt>
      <trkpt lat="45.3837" lon="3.80909">
        <ele>1130</ele>
        <time>2025-05-18T13:33:15.388Z</time>
      </trkpt>
      <trkpt lat="45.38375" lon="3.80907">
        <ele>1130</ele>
        <time>2025-05-18T13:33:19.664Z</time>
      </trkpt>
      <trkpt lat="45.38379" lon="3.80904">
        <ele>1132</ele>
        <time>2025-05-18T13:33:24.105Z</time>
      </trkpt>
      <trkpt lat="45.38384" lon="3.809">
        <ele>1132</ele>
        <time>2025-05-18T13:33:28.143Z</time>
      </trkpt>
      <trkpt lat="45.38389" lon="3.80894">
        <ele>1132</ele>
        <time>2025-05-18T13:33:32.511Z</time>
      </trkpt>
      <trkpt lat="45.38396" lon="3.80886">
        <ele>1132</ele>
        <time>2025-05-18T13:33:37.105Z</time>
      </trkpt>
      <trkpt lat="45.38401" lon="3.8088">
        <ele>1132</ele>
        <time>2025-05-18T13:33:41.506Z</time>
      </trkpt>
      <trkpt lat="45.38406" lon="3.80874">
        <ele>1137</ele>
        <time>2025-05-18T13:33:45.539Z</time>
      </trkpt>
      <trkpt lat="45.38412" lon="3.80864">
        <ele>1137</ele>
        <time>2025-05-18T13:33:50.409Z</time>
      </trkpt>
      <trkpt lat="45.38418" lon="3.80858">
        <ele>1137</ele>
        <time>2025-05-18T13:33:54.767Z</time>
      </trkpt>
      <trkpt lat="45.38423" lon="3.80852">
        <ele>1137</ele>
        <time>2025-05-18T13:33:58.945Z</time>
      </trkpt>
      <trkpt lat="45.38428" lon="3.80846">
        <ele>1139</ele>
        <time>2025-05-18T13:34:03.542Z</time>
      </trkpt>
      <trkpt lat="45.38434" lon="3.80841">
        <ele>1141</ele>
        <time>2025-05-18T13:34:08.308Z</time>
      </trkpt>
      <trkpt lat="45.38439" lon="3.80837">
        <ele>1141</ele>
        <time>2025-05-18T13:34:12.347Z</time>
      </trkpt>
      <trkpt lat="45.38443" lon="3.80832">
        <ele>1141</ele>
        <time>2025-05-18T13:34:16.534Z</time>
      </trkpt>
      <trkpt lat="45.38448" lon="3.80827">
        <ele>1141</ele>
        <time>2025-05-18T13:34:20.768Z</time>
      </trkpt>
      <trkpt lat="45.38452" lon="3.80821">
        <ele>1141</ele>
        <time>2025-05-18T13:34:25.110Z</time>
      </trkpt>
      <trkpt lat="45.38458" lon="3.80813">
        <ele>1141</ele>
        <time>2025-05-18T13:34:29.869Z</time>
      </trkpt>
      <trkpt lat="45.38461" lon="3.80807">
        <ele>1142</ele>
        <time>2025-05-18T13:34:34.089Z</time>
      </trkpt>
      <trkpt lat="45.38466" lon="3.80802">
        <ele>1142</ele>
        <time>2025-05-18T13:34:38.242Z</time>
      </trkpt>
      <trkpt lat="45.3847" lon="3.80797">
        <ele>1142</ele>
        <time>2025-05-18T13:34:42.618Z</time>
      </trkpt>
      <trkpt lat="45.38475" lon="3.80793">
        <ele>1142</ele>
        <time>2025-05-18T13:34:46.942Z</time>
      </trkpt>
      <trkpt lat="45.38481" lon="3.8079">
        <ele>1140</ele>
        <time>2025-05-18T13:34:51.524Z</time>
      </trkpt>
      <trkpt lat="45.38486" lon="3.80785">
        <ele>1140</ele>
        <time>2025-05-18T13:34:55.823Z</time>
      </trkpt>
      <trkpt lat="45.38491" lon="3.80778">
        <ele>1143</ele>
        <time>2025-05-18T13:35:00.509Z</time>
      </trkpt>
      <trkpt lat="45.38496" lon="3.80772">
        <ele>1143</ele>
        <time>2025-05-18T13:35:04.823Z</time>
      </trkpt>
      <trkpt lat="45.38503" lon="3.80769">
        <ele>1143</ele>
        <time>2025-05-18T13:35:09.328Z</time>
      </trkpt>
      <trkpt lat="45.38509" lon="3.80768">
        <ele>1143</ele>
        <time>2025-05-18T13:35:13.367Z</time>
      </trkpt>
      <trkpt lat="45.38514" lon="3.80765">
        <ele>1146</ele>
        <time>2025-05-18T13:35:17.504Z</time>
      </trkpt>
      <trkpt lat="45.3852" lon="3.80761">
        <ele>1146</ele>
        <time>2025-05-18T13:35:21.747Z</time>
      </trkpt>
      <trkpt lat="45.38525" lon="3.80755">
        <ele>1146</ele>
        <time>2025-05-18T13:35:26.245Z</time>
      </trkpt>
      <trkpt lat="45.38528" lon="3.80753">
        <ele>1146</ele>
        <time>2025-05-18T13:35:30.503Z</time>
      </trkpt>
      <trkpt lat="45.38533" lon="3.80753">
        <ele>1146</ele>
        <time>2025-05-18T13:35:35.149Z</time>
      </trkpt>
      <trkpt lat="45.38538" lon="3.80752">
        <ele>1146</ele>
        <time>2025-05-18T13:35:39.328Z</time>
      </trkpt>
      <trkpt lat="45.38543" lon="3.80751">
        <ele>1147</ele>
        <time>2025-05-18T13:35:43.518Z</time>
      </trkpt>
      <trkpt lat="45.38549" lon="3.80748">
        <ele>1147</ele>
        <time>2025-05-18T13:35:48.484Z</time>
      </trkpt>
      <trkpt lat="45.38554" lon="3.80744">
        <ele>1147</ele>
        <time>2025-05-18T13:35:52.703Z</time>
      </trkpt>
      <trkpt lat="45.3856" lon="3.80739">
        <ele>1147</ele>
        <time>2025-05-18T13:35:57.365Z</time>
      </trkpt>
      <trkpt lat="45.38566" lon="3.80732">
        <ele>1146</ele>
        <time>2025-05-18T13:36:02.264Z</time>
      </trkpt>
      <trkpt lat="45.38571" lon="3.80727">
        <ele>1148</ele>
        <time>2025-05-18T13:36:06.521Z</time>
      </trkpt>
      <trkpt lat="45.38577" lon="3.80723">
        <ele>1148</ele>
        <time>2025-05-18T13:36:10.727Z</time>
      </trkpt>
      <trkpt lat="45.38583" lon="3.80718">
        <ele>1148</ele>
        <time>2025-05-18T13:36:15.046Z</time>
      </trkpt>
      <trkpt lat="45.38589" lon="3.80711">
        <ele>1148</ele>
        <time>2025-05-18T13:36:19.444Z</time>
      </trkpt>
      <trkpt lat="45.38595" lon="3.80706">
        <ele>1148</ele>
        <time>2025-05-18T13:36:23.503Z</time>
      </trkpt>
      <trkpt lat="45.38599" lon="3.80702">
        <ele>1150</ele>
        <time>2025-05-18T13:36:27.831Z</time>
        <extensions>
          <visugpx:TrkExtension xmlns:visugpx="https://www.visugpx.com/editgpx/">
            <visugpx:node>1</visugpx:node>
            </visugpx:TrkExtension>
        </extensions>
      </trkpt>
      <trkpt lat="45.38595" lon="3.80682">
        <ele>1143.7</ele>
      </trkpt>
      <trkpt lat="45.38602" lon="3.80677">
        <ele>1143.9</ele>
      </trkpt>
      <trkpt lat="45.38608" lon="3.80676">
        <ele>1144.2</ele>
      </trkpt>
      <trkpt lat="45.38614" lon="3.80676">
        <ele>1144.5</ele>
      </trkpt>
      <trkpt lat="45.38621" lon="3.80676">
        <ele>1144.9</ele>
      </trkpt>
      <trkpt lat="45.38628" lon="3.80676">
        <ele>1145.3</ele>
      </trkpt>
      <trkpt lat="45.38635" lon="3.80677">
        <ele>1145.8</ele>
      </trkpt>
      <trkpt lat="45.38642" lon="3.80679">
        <ele>1146.2</ele>
      </trkpt>
      <trkpt lat="45.38648" lon="3.80682">
        <ele>1146.7</ele>
      </trkpt>
      <trkpt lat="45.38653" lon="3.80684">
        <ele>1147</ele>
      </trkpt>
      <trkpt lat="45.38659" lon="3.80685">
        <ele>1147.4</ele>
      </trkpt>
      <trkpt lat="45.38665" lon="3.80686">
        <ele>1147.9</ele>
      </trkpt>
      <trkpt lat="45.3867" lon="3.80687">
        <ele>1148.1</ele>
      </trkpt>
      <trkpt lat="45.38677" lon="3.80687">
        <ele>1148.3</ele>
      </trkpt>
      <trkpt lat="45.38684" lon="3.80687">
        <ele>1148.5</ele>
      </trkpt>
      <trkpt lat="45.38691" lon="3.80685">
        <ele>1148.6</ele>
      </trkpt>
      <trkpt lat="45.38697" lon="3.80683">
        <ele>1148.7</ele>
      </trkpt>
      <trkpt lat="45.38704" lon="3.80681">
        <ele>1148.9</ele>
      </trkpt>
      <trkpt lat="45.3871" lon="3.80679">
        <ele>1149</ele>
      </trkpt>
      <trkpt lat="45.38717" lon="3.80678">
        <ele>1149.2</ele>
      </trkpt>
      <trkpt lat="45.38724" lon="3.80677">
        <ele>1149.5</ele>
      </trkpt>
      <trkpt lat="45.38731" lon="3.80676">
        <ele>1149.9</ele>
      </trkpt>
      <trkpt lat="45.38737" lon="3.80677">
        <ele>1150.2</ele>
      </trkpt>
      <trkpt lat="45.38743" lon="3.80677">
        <ele>1150.6</ele>
      </trkpt>
      <trkpt lat="45.38749" lon="3.80677">
        <ele>1150.9</ele>
      </trkpt>
      <trkpt lat="45.38755" lon="3.80677">
        <ele>1151.2</ele>
      </trkpt>
      <trkpt lat="45.38758" lon="3.80677">
        <ele>1151.3</ele>
      </trkpt>
      <trkpt lat="45.38763" lon="3.80676">
        <ele>1151.5</ele>
      </trkpt>
      <trkpt lat="45.38768" lon="3.80675">
        <ele>1151.6</ele>
      </trkpt>
      <trkpt lat="45.38768" lon="3.80675">
        <ele>1151.6</ele>
        <extensions>
          <visugpx:TrkExtension xmlns:visugpx="https://www.visugpx.com/editgpx/">
            <visugpx:node>2</visugpx:node>
            </visugpx:TrkExtension>
        </extensions>
      </trkpt>
      <trkpt lat="45.38768" lon="3.80675">
        <ele>1151.6</ele>
      </trkpt>
      <trkpt lat="45.38772" lon="3.80672">
        <ele>1151.8</ele>
      </trkpt>
      <trkpt lat="45.38775" lon="3.80671">
        <ele>1151.9</ele>
      </trkpt>
      <trkpt lat="45.3878" lon="3.80666">
        <ele>1152.3</ele>
      </trkpt>
      <trkpt lat="45.38773" lon="3.80663">
        <ele>1152</ele>
      </trkpt>
      <trkpt lat="45.3877" lon="3.80661">
        <ele>1152</ele>
      </trkpt>
      <trkpt lat="45.38762" lon="3.80652">
        <ele>1151.9</ele>
      </trkpt>
      <trkpt lat="45.38754" lon="3.8064">
        <ele>1151.4</ele>
      </trkpt>
      <trkpt lat="45.38739" lon="3.8062">
        <ele>1151</ele>
      </trkpt>
      <trkpt lat="45.38717" lon="3.80588">
        <ele>1149.3</ele>
      </trkpt>
      <trkpt lat="45.38704" lon="3.80567">
        <ele>1148.8</ele>
      </trkpt>
      <trkpt lat="45.38695" lon="3.80546">
        <ele>1148.1</ele>
      </trkpt>
      <trkpt lat="45.38689" lon="3.80525">
        <ele>1147.5</ele>
      </trkpt>
      <trkpt lat="45.38685" lon="3.80506">
        <ele>1147.5</ele>
      </trkpt>
      <trkpt lat="45.38683" lon="3.80481">
        <ele>1147.4</ele>
      </trkpt>
      <trkpt lat="45.38681" lon="3.80447">
        <ele>1146.2</ele>
      </trkpt>
      <trkpt lat="45.38679" lon="3.80435">
        <ele>1145.8</ele>
      </trkpt>
      <trkpt lat="45.38675" lon="3.80417">
        <ele>1145.2</ele>
      </trkpt>
      <trkpt lat="45.38668" lon="3.80399">
        <ele>1144.2</ele>
      </trkpt>
      <trkpt lat="45.3866" lon="3.80384">
        <ele>1143.3</ele>
      </trkpt>
      <trkpt lat="45.38649" lon="3.80367">
        <ele>1141.9</ele>
      </trkpt>
      <trkpt lat="45.38637" lon="3.80346">
        <ele>1140.4</ele>
      </trkpt>
      <trkpt lat="45.38625" lon="3.80326">
        <ele>1139.5</ele>
      </trkpt>
      <trkpt lat="45.38616" lon="3.80305">
        <ele>1139.1</ele>
      </trkpt>
      <trkpt lat="45.38607" lon="3.80282">
        <ele>1137.4</ele>
      </trkpt>
      <trkpt lat="45.38601" lon="3.80258">
        <ele>1136.7</ele>
      </trkpt>
      <trkpt lat="45.38597" lon="3.80239">
        <ele>1135.5</ele>
      </trkpt>
      <trkpt lat="45.38595" lon="3.80225">
        <ele>1134.3</ele>
      </trkpt>
      <trkpt lat="45.38593" lon="3.80207">
        <ele>1132.7</ele>
      </trkpt>
      <trkpt lat="45.38591" lon="3.80193">
        <ele>1131.6</ele>
      </trkpt>
      <trkpt lat="45.38588" lon="3.80179">
        <ele>1130.3</ele>
      </trkpt>
      <trkpt lat="45.38581" lon="3.80155">
        <ele>1128.1</ele>
      </trkpt>
      <trkpt lat="45.38576" lon="3.80141">
        <ele>1126.9</ele>
      </trkpt>
      <trkpt lat="45.38575" lon="3.80136">
        <ele>1126.5</ele>
      </trkpt>
      <trkpt lat="45.38575" lon="3.80127">
        <ele>1126</ele>
      </trkpt>
      <trkpt lat="45.38578" lon="3.80117">
        <ele>1125.4</ele>
        <extensions>
          <visugpx:TrkExtension xmlns:visugpx="https://www.visugpx.com/editgpx/">
            <visugpx:node>3</visugpx:node>
            </visugpx:TrkExtension>
        </extensions>
      </trkpt>
    </trkseg>
  </trk>
</gpx>